Home > Products > Valid Products > MTR

000
SAUS46 KLOX 311636
MTRMWS
METAR KMWS 311630Z 23500G00KT MM/01 RMK SNOW DEPTH 3.00





000
SAUS46 KLOX 311616
MTRCQT
SPECI KCQT 311614Z AUTO 00000KT 9SM SCT020 OVC039 19/14 A2997 RMK
AO2 T01940139





000
SAUS46 KLOX 311615
MTRMWS
METAR KMWS 311600Z 16005G10KT 15/M01 RMK SNOW DEPTH 2.00





000
SAUS46 KLOX 311557
MTR9L2
METAR K9L2 311555Z AUTO 14003KT 10SM CLR 12/02 A2995 RMK AO2 SLP136
T01170022 TSNO $





000
SAUS46 KLOX 311554
MTRLAX
METAR KLAX 311553Z 11005KT 10SM SCT013 BKN040 19/17 A2998 RMK AO2
SLP150 T01850166 $





000
SAUS46 KLOX 311554
MTRMWS
METAR KMWS 311545Z 15007G11KT 14/00 RMK SNOW DEPTH 2.00





000
SAUS46 KLOX 311553
MTRSMX
METAR KSMX 311551Z 12006KT 10SM FEW026 BKN036 18/13 A2996 RMK AO2
SLP145 T01830128





000
SAUS46 KLOX 311549
MTRSDB
METAR KSDB 311548Z AUTO 21011KT 10SM CLR 12/06 A3002 RMK AO2 SLP127
T01170056





000
SAUS46 KLOX 311548
MTRCQT
METAR KCQT 311547Z AUTO VRB03KT 9SM BKN019 OVC037 19/14 A2997 RMK
AO2 SLP148 T01890139





000
SAUS46 KLOX 311536
MTRMWS
METAR KMWS 311530Z 23500G00KT MM/M01 RMK SNOW DEPTH 3.00





000
SAUS46 KLOX 311535
MTRCQT
SPECI KCQT 311534Z AUTO 01004KT 9SM BKN018 OVC037 18/14 A2997 RMK
AO2 T01830139





000
SAUS46 KLOX 311530
MTRCQT
SPECI KCQT 311528Z AUTO 00000KT 9SM SCT018 BKN037 18/14 A2997 RMK
AO2 T01830139





000
SAUS46 KLOX 311515
MTRMWS
METAR KMWS 311500Z 16507G11KT 11/M03 RMK SNOW DEPTH 2.00





000
SAUS46 KLOX 311456
MTR9L2
METAR K9L2 311455Z AUTO 07003KT 10SM CLR 09/01 A2995 RMK AO2 SLP135
T00890006 53004 TSNO $





000
SAUS46 KLOX 311454
MTRLAX
METAR KLAX 311453Z 07004KT 10SM SCT028 BKN037 18/17 A2997 RMK AO2
SLP145 T01760166 53007 $





000
SAUS46 KLOX 311454
MTRMWS
METAR KMWS 311445Z 16504G09KT 10/M03 RMK SNOW DEPTH 2.00





000
SAUS46 KLOX 311453
MTRSMX
METAR KSMX 311451Z 14003KT 9SM FEW020 OVC037 17/13 A2994 RMK AO2
SLP141 T01720133 53005





000
SAUS46 KLOX 311449
MTRSDB
METAR KSDB 311448Z AUTO 19013KT 10SM CLR 10/05 A3000 RMK AO2 SLP125
T01000050 55002





000
SAUS46 KLOX 311448
MTRCQT
METAR KCQT 311447Z AUTO 00000KT 7SM BKN015 BKN029 OVC036 18/14 A2996
RMK AO2 SLP143 T01780139 53006





000
SAUS46 KLOX 311436
MTRMWS
METAR KMWS 311430Z 23500G00KT MM/M02 RMK SNOW DEPTH 2.00





000
SAUS46 KLOX 311415
MTRMWS
METAR KMWS 311400Z 16506G12KT 10/M03 RMK SNOW DEPTH 2.00





000
SAUS46 KLOX 311358
MTR9L2
METAR K9L2 311355Z AUTO 00000KT 10SM CLR 09/01 A2993 RMK AO2 SLP131
T00890011 TSNO $





000
SAUS46 KLOX 311354
MTRMWS
METAR KMWS 311345Z 17009G14KT 11/M02 RMK SNOW DEPTH 2.00





000
SAUS46 KLOX 311354
MTRLAX
METAR KLAX 311353Z 10004KT 10SM FEW011 SCT016 BKN029 18/16 A2995 RMK
AO2 SLP141 T01810156 $





000
SAUS46 KLOX 311352
MTRSMX
METAR KSMX 311351Z 16003KT 10SM BKN020 OVC035 17/13 A2994 RMK AO2
SLP139 T01720133





000
SAUS46 KLOX 311349
MTRSDB
METAR KSDB 311348Z AUTO 20011KT 10SM CLR 11/03 A3000 RMK AO2 SLP122
T01060033





000
SAUS46 KLOX 311348
MTRCQT
METAR KCQT 311347Z AUTO 00000KT 8SM BKN018 BKN023 BKN029 17/14 A2995
RMK AO2 SLP140 T01720139





000
SAUS46 KLOX 311336
MTRMWS
METAR KMWS 311330Z 23500G00KT MM/M02 RMK SNOW DEPTH 2.00





000
SAUS46 KLOX 311332
MTRSMX
SPECI KSMX 311331Z 16003KT 10SM BKN021 OVC035 17/13 A2994 RMK AO2
T01720133





000
SAUS46 KLOX 311315
MTRMWS
METAR KMWS 311300Z 15507G09KT 11/M02 RMK SNOW DEPTH 2.00





000
SAUS46 KLOX 311259
MTR9L2
METAR K9L2 311255Z AUTO 17008KT 10SM CLR 11/02 A2993 RMK AO2 SLP128
T01110022 $





000
SAUS46 KLOX 311254
MTRLAX
METAR KLAX 311253Z 00000KT 10SM SCT014 BKN020 18/16 A2995 RMK AO2
SLP140 T01790156 $





000
SAUS46 KLOX 311254
MTRMWS
METAR KMWS 311245Z 16010G15KT 10/M03 RMK SNOW DEPTH 2.00





000
SAUS46 KLOX 311253
MTRSMX
METAR KSMX 311251Z 00000KT 10SM FEW018 SCT024 OVC034 17/13 A2993 RMK
AO2 SLP137 T01720133





000
SAUS46 KLOX 311253
MTRCQT
SPECI KCQT 311252Z AUTO 00000KT 10SM BKN015 BKN028 17/14 A2995 RMK
AO2 T01670139





000
SAUS46 KLOX 311249
MTRSDB
METAR KSDB 311248Z AUTO 20011KT 10SM CLR 11/04 A3001 RMK AO2 SLP121
T01110039





000
SAUS46 KLOX 311248
MTRCQT
METAR KCQT 311247Z AUTO 00000KT 9SM SCT015 SCT028 17/14 A2995 RMK
AO2 SLP139 T01670139





000
SAUS46 KLOX 311236
MTRMWS
METAR KMWS 311230Z 23500G00KT MM/M03 RMK SNOW DEPTH 2.00





000
SAUS46 KLOX 311215
MTRMWS
METAR KMWS 311200Z 15006G10KT 11/M03 RMK SNOW DEPTH 2.00





000
SAUS46 KLOX 311157
MTR9L2
METAR K9L2 311155Z AUTO 13004KT 10SM CLR 11/02 A2993 RMK AO2 SLP126
T01110022 10178 20094 58007 TSNO $





000
SAUS46 KLOX 311155
MTRLAX
METAR KLAX 311153Z 11004KT 10SM BKN014 BKN020 18/16 A2994 RMK AO2
SLP138 T01810156 10189 20178 56007 $





000
SAUS46 KLOX 311154
MTRMWS
METAR KMWS 311145Z 16507G14KT 10/M04 RMK SNOW DEPTH 2.00





000
SAUS46 KLOX 311152
MTRSMX
METAR KSMX 311151Z AUTO 00000KT 10SM BKN015 BKN023 OVC032 17/13
A2993 RMK AO2 SLP135 T01720133 10172 20139 56008





000
SAUS46 KLOX 311149
MTRSDB
METAR KSDB 311148Z AUTO 19009KT 10SM CLR 11/04 A3001 RMK AO2 SLP120
T01110039 10144 20111 58008





000
SAUS46 KLOX 311148
MTRCQT
METAR KCQT 311147Z AUTO 00000KT 10SM FEW024 17/14 A2994 RMK AO2
SLP137 T01670144 10189 20167 58006





000
SAUS46 KLOX 311136
MTRMWS
METAR KMWS 311130Z 23500G00KT MM/M02 RMK SNOW DEPTH 2.00





000
SAUS46 KLOX 311129
MTRSMX
SPECI KSMX 311128Z AUTO 00000KT 10SM SCT012 BKN017 OVC033 17/13
A2993 RMK AO2 T01670128





000
SAUS46 KLOX 311121
MTRLAX
SPECI KLAX 311120Z 10003KT 10SM FEW012 BKN025 18/16 A2994 RMK AO2 $





000
SAUS46 KLOX 311115
MTRMWS
METAR KMWS 311100Z 15008G12KT 09/M02 RMK SNOW DEPTH 2.00





000
SAUS46 KLOX 311058
MTR9L2
METAR K9L2 311055Z AUTO 00000KT 10SM CLR 11/01 A2994 RMK AO2 SLP128
T01060006 TSNO $





000
SAUS46 KLOX 311054
MTRMWS
METAR KMWS 311045Z 18005G06KT 09/M04 RMK SNOW DEPTH 2.00





000
SAUS46 KLOX 311054
MTRMWS
METAR KMWS 311045Z 18005G06KT 09/M04 RMK SNOW DEPTH 2.00





000
SAUS46 KLOX 311054
MTRLAX
METAR KLAX 311053Z 06004KT 10SM SCT012 18/16 A2995 RMK AO2 SLP138
T01770161 $





000
SAUS46 KLOX 311054
MTRLAX
METAR KLAX 311053Z 06004KT 10SM SCT012 18/16 A2995 RMK AO2 SLP138
T01770161 $





000
SAUS46 KLOX 311052
MTRSMX
METAR KSMX 311051Z AUTO 00000KT 10SM BKN013 OVC021 17/13 A2994 RMK
AO2 SLP138 T01720133





000
SAUS46 KLOX 311052
MTRSMX
METAR KSMX 311051Z AUTO 00000KT 10SM BKN013 OVC021 17/13 A2994 RMK
AO2 SLP138 T01720133





000
SAUS46 KLOX 311049
MTRSDB
METAR KSDB 311048Z AUTO 20010G17KT 10SM CLR 12/04 A3002 RMK AO2
SLP122 T01170044





000
SAUS46 KLOX 311049
MTRSDB
METAR KSDB 311048Z AUTO 20010G17KT 10SM CLR 12/04 A3002 RMK AO2
SLP122 T01170044





000
SAUS46 KLOX 311048
MTRCQT
METAR KCQT 311047Z AUTO 00000KT 10SM FEW020 17/14 A2995 RMK AO2
SLP139 T01720144





000
SAUS46 KLOX 311048
MTRCQT
METAR KCQT 311047Z AUTO 00000KT 10SM FEW020 17/14 A2995 RMK AO2
SLP139 T01720144





000
SAUS46 KLOX 311047
MTRSMX
SPECI KSMX 311046Z AUTO 12003KT 10SM BKN013 BKN021 OVC030 17/13
A2994 RMK AO2





000
SAUS46 KLOX 311047
MTRSMX
SPECI KSMX 311046Z AUTO 12003KT 10SM BKN013 BKN021 OVC030 17/13
A2994 RMK AO2





000
SAUS46 KLOX 311044
MTRCQT
SPECI KCQT 311042Z AUTO 00000KT 10SM SCT020 17/14 A2995 RMK AO2
T01720144





000
SAUS46 KLOX 311044
MTRCQT
SPECI KCQT 311042Z AUTO 00000KT 10SM SCT020 17/14 A2995 RMK AO2
T01720144





000
SAUS46 KLOX 311036
MTRMWS
METAR KMWS 311030Z 23500G00KT MM/M02 RMK SNOW DEPTH 2.00





000
SAUS46 KLOX 311015
MTRMWS
METAR KMWS 311000Z 19005G06KT 09/M02 RMK SNOW DEPTH 2.00





000
SAUS46 KLOX 310957
MTR9L2
METAR K9L2 310955Z AUTO 17003KT 10SM CLR 11/00 A2995 RMK AO2 SLP133
T01110000 $





000
SAUS46 KLOX 310954
MTRLAX
METAR KLAX 310953Z 00000KT 10SM BKN014 18/16 A2996 RMK AO2 SLP144
T01820161 $





000
SAUS46 KLOX 310954
MTRMWS
METAR KMWS 310945Z 18004G06KT 09/M03 RMK SNOW DEPTH 2.00





000
SAUS46 KLOX 310954
MTRMWS
METAR KMWS 310945Z 18004G06KT 09/M03 RMK SNOW DEPTH 2.00





000
SAUS46 KLOX 310954
MTRLAX
METAR KLAX 310953Z 00000KT 10SM BKN014 18/16 A2996 RMK AO2 SLP144
T01820161 $





000
SAUS46 KLOX 310953
MTRSMX
METAR KSMX 310951Z AUTO 00000KT 9SM OVC017 17/13 A2996 RMK AO2
SLP144 T01670128





000
SAUS46 KLOX 310953
MTRSMX
METAR KSMX 310951Z AUTO 00000KT 9SM OVC017 17/13 A2996 RMK AO2
SLP144 T01670128





000
SAUS46 KLOX 310949
MTRSDB
METAR KSDB 310948Z AUTO 21014G23KT 10SM CLR 14/05 A3003 RMK AO2 PK
WND 20030/0929 SLP121 T01390050





000
SAUS46 KLOX 310949
MTRSDB
METAR KSDB 310948Z AUTO 21014G23KT 10SM CLR 14/05 A3003 RMK AO2 PK
WND 20030/0929 SLP121 T01390050





000
SAUS46 KLOX 310948
MTRCQT
METAR KCQT 310947Z AUTO 00000KT 9SM BKN015 18/15 A2996 RMK AO2
SLP142 T01780150





000
SAUS46 KLOX 310943
MTRCQT
SPECI KCQT 310942Z AUTO 00000KT 9SM BKN015 18/15 A2996 RMK AO2
T01780150





000
SAUS46 KLOX 310936
MTRMWS
METAR KMWS 310930Z 23500G00KT MM/M04 RMK SNOW DEPTH 2.00





000
SAUS46 KLOX 310927
MTRLAX
SPECI KLAX 310926Z 00000KT 10SM BKN014 18/16 A2996 RMK AO2 $





000
SAUS46 KLOX 310915
MTRMWS
METAR KMWS 310900Z 21005G07KT 10/M02 RMK SNOW DEPTH 2.00





000
SAUS46 KLOX 310909
MTRCQT
SPECI KCQT 310908Z AUTO 00000KT 10SM BKN013 17/14 A2996 RMK AO2
T01720144





000
SAUS46 KLOX 310858
MTR9L2
METAR K9L2 310855Z AUTO VRB03KT 10SM CLR 13/01 A2995 RMK AO2 SLP132
T01330006 58005 $





000
SAUS46 KLOX 310855
MTRLAX
METAR KLAX 310853Z 00000KT 10SM SCT015 18/16 A2997 RMK AO2 SLP145
T01810161 55003 $





000
SAUS46 KLOX 310854
MTRMWS
METAR KMWS 310845Z 18004G07KT 10/M04 RMK SNOW DEPTH 2.00





000
SAUS46 KLOX 310852
MTRSMX
METAR KSMX 310851Z AUTO 10003KT 9SM BKN019 OVC024 17/13 A2997 RMK
AO2 SLP148 T01670133 50002





000
SAUS46 KLOX 310849
MTRSDB
METAR KSDB 310848Z AUTO 20019G25KT 10SM CLR 14/06 A3003 RMK AO2
SLP122 T01390056 56012





000
SAUS46 KLOX 310848
MTRCQT
METAR KCQT 310847Z AUTO 00000KT 10SM CLR 17/15 A2996 RMK AO2 SLP143
T01720150 56003





000
SAUS46 KLOX 310836
MTRMWS
METAR KMWS 310830Z 23500G00KT MM/M02 RMK SNOW DEPTH 2.00





000
SAUS46 KLOX 310815
MTRMWS
METAR KMWS 310800Z 21006G08KT 11/M03 RMK SNOW DEPTH 2.00





000
SAUS46 KLOX 310807
MTRCQT
SPECI KCQT 310805Z AUTO 00000KT 10SM SCT013 18/15 A2996 RMK AO2
T01830150





000
SAUS46 KLOX 310758
MTR9L2
METAR K9L2 310755Z AUTO 17005KT 10SM CLR 13/02 A2996 RMK AO2 SLP135
T01330017 402670044 $





000
SAUS46 KLOX 310754
MTRLAX
METAR KLAX 310753Z 00000KT 10SM SCT015 18/16 A2996 RMK AO2 SLP145
SCT V BKN T01830161 402390161 $





000
SAUS46 KLOX 310752
MTRLAX
SPECI KLAX 310751Z 26003KT 10SM SCT015 18/16 A2996 RMK AO2 SCT V BKN
402390161 $





000
SAUS46 KLOX 310752
MTRSMX
METAR KSMX 310751Z AUTO 11003KT 7SM BKN016 14/12 A2997 RMK AO2
SLP149 T01440117 402500128





000
SAUS46 KLOX 310749
MTRCQT
METAR KCQT 310747Z AUTO 00000KT 10SM OVC013 18/16 A2996 RMK AO2
SLP143 T01830156 402720156





000
SAUS46 KLOX 310749
MTRSMX
SPECI KSMX 310748Z AUTO 00000KT 7SM BKN016 14/12 A2997 RMK AO2





000
SAUS46 KLOX 310749
MTRSDB
METAR KSDB 310748Z AUTO 19016KT 10SM CLR 14/04 A3004 RMK AO2 SLP122
T01390039 402500133





000
SAUS46 KLOX 310726
MTRLAX
SPECI KLAX 310725Z 25003KT 10SM BKN015 18/16 A2997 RMK AO2 $





000
SAUS46 KLOX 310718
MTRLAX
SPECI KLAX 310717Z 24004KT 10SM BKN014 18/16 A2997 RMK AO2 BKN V SCT
$





000
SAUS46 KLOX 310716
MTRCQT
SPECI KCQT 310715Z AUTO 00000KT 10SM BKN013 18/15 A2996 RMK AO2
T01830150





000
SAUS46 KLOX 310657
MTR9L2
METAR K9L2 310655Z AUTO 15008KT 10SM CLR 14/01 A2997 RMK AO2 SLP140
T01390006 $





000
SAUS46 KLOX 310654
MTRLAX
METAR KLAX 310653Z 00000KT 10SM SCT013 19/16 A2996 RMK AO2 SLP143
SCT V BKN T01890161 $





000
SAUS46 KLOX 310653
MTRSMX
METAR KSMX 310651Z AUTO 12004KT 6SM HZ CLR 14/12 A2996 RMK AO2
SLP146 T01440117





000
SAUS46 KLOX 310649
MTRSDB
METAR KSDB 310648Z AUTO 20014KT 10SM CLR 14/02 A3006 RMK AO2 SLP130
T01440022





000
SAUS46 KLOX 310648
MTRCQT
METAR KCQT 310647Z AUTO 00000KT 10SM SCT013 18/16 A2996 RMK AO2
SLP143 T01830156





000
SAUS46 KLOX 310644
MTRCQT
SPECI KCQT 310643Z AUTO 00000KT 10SM SCT013 18/16 A2996 RMK AO2
T01830156





000
SAUS46 KLOX 310558
MTR9L2
METAR K9L2 310555Z AUTO 17006KT 10SM CLR 17/00 A2997 RMK AO2 SLP142
T01670000 10256 20161 53005 TSNO $





000
SAUS46 KLOX 310554
MTRLAX
METAR KLAX 310553Z 28007KT 10SM FEW012 19/16 A2997 RMK AO2 SLP148
T01890161 10200 20189 53005 $





000
SAUS46 KLOX 310553
MTRSMX
METAR KSMX 310551Z AUTO 11004KT 7SM CLR 14/12 A2996 RMK AO2 SLP146
T01440117 10228 20139 51005





000
SAUS46 KLOX 310549
MTRSDB
METAR KSDB 310548Z AUTO 21010KT 10SM CLR 14/01 A3007 RMK AO2 SLP136
T01440011 10194 20144 55002





000
SAUS46 KLOX 310548
MTRCQT
METAR KCQT 310547Z AUTO 00000KT 10SM OVC013 19/16 A2997 RMK AO2
SLP145 T01890156 10211 20183 53005





000
SAUS46 KLOX 310458
MTR9L2
METAR K9L2 310455Z AUTO 24009KT 10SM CLR 19/M01 A2996 RMK AO2 SLP140
T01941006 TSNO $





000
SAUS46 KLOX 310458
MTR9L2
METAR K9L2 310455Z AUTO 24009KT 10SM CLR 19/M01 A2996 RMK AO2 SLP140
T01941006 TSNO $





000
SAUS46 KLOX 310454
MTRLAX
METAR KLAX 310453Z 25008KT 10SM FEW012 19/17 A2997 RMK AO2 SLP145
T01890167 $





000
SAUS46 KLOX 310452
MTRSMX
METAR KSMX 310451Z AUTO 10003KT 8SM CLR 16/12 A2996 RMK AO2 SLP146
T01560122





000
SAUS46 KLOX 310452
MTRSMX
METAR KSMX 310451Z AUTO 10003KT 8SM CLR 16/12 A2996 RMK AO2 SLP146
T01560122





000
SAUS46 KLOX 310449
MTRSDB
METAR KSDB 310448Z AUTO 20013KT 10SM CLR 15/01 A3007 RMK AO2 SLP136
T01500006





000
SAUS46 KLOX 310448
MTRCQT
METAR KCQT 310447Z AUTO 00000KT 10SM BKN011 19/16 A2996 RMK AO2
SLP143 T01890161





000
SAUS46 KLOX 310438
MTRCQT
SPECI KCQT 310437Z AUTO 00000KT 10SM BKN011 19/16 A2995 RMK AO2
T01890161





000
SAUS46 KLOX 310420
MTRCQT
SPECI KCQT 310418Z AUTO 00000KT 10SM SCT011 19/16 A2995 RMK AO2
T01890161





000
SAUS46 KLOX 310420
MTRCQT
SPECI KCQT 310418Z AUTO 00000KT 10SM SCT011 19/16 A2995 RMK AO2
T01890161





000
SAUS46 KLOX 310358
MTR9L2
METAR K9L2 310355Z AUTO 25012KT 10SM CLR 20/00 A2996 RMK AO2 SLP140
T02000000 TSNO $





000
SAUS46 KLOX 310358
MTR9L2
METAR K9L2 310355Z AUTO 25012KT 10SM CLR 20/00 A2996 RMK AO2 SLP140
T02000000 TSNO $





000
SAUS46 KLOX 310354
MTRLAX
METAR KLAX 310353Z 26008KT 10SM FEW012 SCT150 19/17 A2996 RMK AO2
SLP143 T01900167 $





000
SAUS46 KLOX 310354
MTRLAX
METAR KLAX 310353Z 26008KT 10SM FEW012 SCT150 19/17 A2996 RMK AO2
SLP143 T01900167 $





000
SAUS46 KLOX 310353
MTRSMX
METAR KSMX 310351Z AUTO 00000KT 8SM CLR 16/13 A2995 RMK AO2 SLP144
T01610128





000
SAUS46 KLOX 310353
MTRSMX
METAR KSMX 310351Z AUTO 00000KT 8SM CLR 16/13 A2995 RMK AO2 SLP144
T01610128





000
SAUS46 KLOX 310349
MTRSDB
METAR KSDB 310348Z AUTO 19014KT 10SM CLR 16/02 A3006 RMK AO2 SLP135
T01560017





000
SAUS46 KLOX 310349
MTRSDB
METAR KSDB 310348Z AUTO 19014KT 10SM CLR 16/02 A3006 RMK AO2 SLP135
T01560017





000
SAUS46 KLOX 310348
MTRCQT
METAR KCQT 310347Z AUTO 00000KT 10SM BKN011 19/16 A2995 RMK AO2
SLP141 T01940156





000
SAUS46 KLOX 310348
MTRCQT
METAR KCQT 310347Z AUTO 00000KT 10SM BKN011 19/16 A2995 RMK AO2
SLP141 T01940156





000
SAUS46 KLOX 310342
MTRCQT
SPECI KCQT 310341Z AUTO 00000KT 10SM BKN011 19/16 A2995 RMK AO2
T01890156





000
SAUS46 KLOX 310342
MTRCQT
SPECI KCQT 310341Z AUTO 00000KT 10SM BKN011 19/16 A2995 RMK AO2
T01890156





000
SAUS46 KLOX 310258
MTR9L2
METAR K9L2 310255Z AUTO 25013KT 10SM CLR 21/02 A2996 RMK AO2 SLP139
T02110017 53003 TSNO $





000
SAUS46 KLOX 310254
MTRLAX
METAR KLAX 310253Z 25008KT 10SM SCT015 BKN150 20/17 A2996 RMK AO2
SLP143 T02000172 53006 $





000
SAUS46 KLOX 310252
MTRSMX
METAR KSMX 310251Z 00000KT 8SM CLR 18/14 A2995 RMK AO2 SLP143
T01780144 55000





000
SAUS46 KLOX 310249
MTRSDB
METAR KSDB 310248Z AUTO 21012G18KT 10SM CLR 16/02 A3008 RMK AO2
SLP143 T01560017 56001





000
SAUS46 KLOX 310248
MTRCQT
METAR KCQT 310247Z AUTO 00000KT 10SM CLR 19/14 A2995 RMK AO2 SLP141
T01940144 53007





000
SAUS46 KLOX 310157
MTR9L2
METAR K9L2 310155Z AUTO 25005KT 10SM CLR 21/M05 A2994 RMK AO2 SLP137
T02061050 TSNO $





000
SAUS46 KLOX 310154
MTRLAX
METAR KLAX 310153Z 27006KT 10SM BKN150 BKN200 19/16 A2994 RMK AO2
SLP136 T01930161 $





000
SAUS46 KLOX 310152
MTRSMX
METAR KSMX 310151Z 00000KT 8SM CLR 18/14 A2995 RMK AO2 SLP142
T01830144





000
SAUS46 KLOX 310152
MTRSMX
METAR KSMX 310151Z 00000KT 8SM CLR 18/14 A2995 RMK AO2 SLP142
T01830144





000
SAUS46 KLOX 310149
MTRCQT
METAR KCQT 310147Z AUTO 00000KT 10SM CLR 20/14 A2994 RMK AO2 SLP138
T02000139





000
SAUS46 KLOX 310149
MTRSDB
METAR KSDB 310148Z AUTO 20009KT 10SM CLR 17/02 A3008 RMK AO2 SLP142
T01670022





000
SAUS46 KLOX 310149
MTRCQT
METAR KCQT 310147Z AUTO 00000KT 10SM CLR 20/14 A2994 RMK AO2 SLP138
T02000139





000
SAUS46 KLOX 310149
MTRSDB
METAR KSDB 310148Z AUTO 20009KT 10SM CLR 17/02 A3008 RMK AO2 SLP142
T01670022





000
SAUS46 KLOX 310100
MTR9L2
METAR K9L2 310055Z AUTO 24003KT 10SM CLR 22/M08 A2995 RMK AO2 SLP137
T02221078 $





000
SAUS46 KLOX 310054
MTRLAX
METAR KLAX 310053Z 27014KT 10SM FEW015 SCT019 BKN150 BKN200 19/16
A2995 RMK AO2 SLP139 T01940161 $





000
SAUS46 KLOX 310052
MTRSMX
METAR KSMX 310051Z 30008KT 9SM SCT200 20/14 A2994 RMK AO2 SLP140
T02000144





000
SAUS46 KLOX 310050
MTRSDB
METAR KSDB 310048Z AUTO 21009KT 10SM CLR 18/02 A3008 RMK AO2 SLP138
T01830017





000
SAUS46 KLOX 310048
MTRCQT
METAR KCQT 310047Z AUTO 00000KT 10SM CLR 21/13 A2992 RMK AO2 SLP130
T02060133





000
SAUS46 KLOX 310036
MTRMWS
METAR KMWS 310030Z 23500G00KT MM/02 RMK SNOW DEPTH 3.00





000
SAUS46 KLOX 310015
MTRMWS
METAR KMWS 310000Z 10505G08KT 16/M07 RMK SNOW DEPTH 3.00





000
SAUS46 KLOX 310000
MTR9L2
METAR K9L2 302355Z AUTO 25004KT 10SM CLR 25/M07 A2995 RMK AO2 SLP135
T02501072 10267 20161 55010 $





000
SAUS46 KLOX 302355
MTRLAX
METAR KLAX 302353Z 26010KT 10SM BKN150 BKN200 19/16 A2994 RMK AO2
SLP137 T01940156 10239 20194 56007 $





000
SAUS46 KLOX 302354
MTRMWS
METAR KMWS 302345Z 13003G06KT 16/00 RMK SNOW DEPTH 3.00





000
SAUS46 KLOX 302352
MTRSMX
METAR KSMX 302351Z 00000KT 10SM BKN200 22/14 A2995 RMK AO2 SLP141
T02220139 10250 20206 58004





000
SAUS46 KLOX 302349
MTRSDB
METAR KSDB 302348Z AUTO 18013KT 10SM CLR 19/01 A3008 RMK AO2 SLP138
T01940006 10250 20194 55003





000
SAUS46 KLOX 302348
MTRCQT
METAR KCQT 302347Z AUTO VRB03KT 10SM CLR 21/15 A2993 RMK AO2 SLP134
T02110150 10272 20211 56006





000
SAUS46 KLOX 302336
MTRMWS
METAR KMWS 302330Z 23500G00KT MM/03 RMK SNOW DEPTH 3.00





000
SAUS46 KLOX 302315
MTRMWS
METAR KMWS 302300Z 21505G07KT 19/06 RMK SNOW DEPTH 4.00





000
SAUS46 KLOX 302257
MTR9L2
METAR K9L2 302255Z AUTO 00000KT 10SM CLR 26/M08 A2995 RMK AO2 SLP133
T02611078 $





000
SAUS46 KLOX 302254
MTRMWS
METAR KMWS 302245Z 21503G05KT 18/06 RMK SNOW DEPTH 3.00





000
SAUS46 KLOX 302254
MTRLAX
METAR KLAX 302253Z 26012KT 10SM SCT150 SCT200 20/16 A2994 RMK AO2
SLP138 SCT012 V BKN T02000161 $





000
SAUS46 KLOX 302252
MTRSMX
METAR KSMX 302251Z 27007KT 10SM OVC200 22/14 A2995 RMK AO2 SLP143
T02170139





000
SAUS46 KLOX 302249
MTRSDB
METAR KSDB 302248Z AUTO 19008G18KT 10SM CLR 21/M02 A3007 RMK AO2
SLP134 T02111017





000
SAUS46 KLOX 302249
MTRCQT
METAR KCQT 302247Z AUTO VRB05KT 10SM CLR 22/16 A2993 RMK AO2 SLP134
T02220156





000
SAUS46 KLOX 302236
MTRMWS
METAR KMWS 302230Z 23500G00KT MM/04 RMK SNOW DEPTH 4.00





000
SAUS46 KLOX 302215
MTRMWS
METAR KMWS 302200Z 21004G06KT 20/05 RMK SNOW DEPTH 4.00





000
SAUS46 KLOX 302215
MTRMWS
METAR KMWS 302200Z 21004G06KT 20/05 RMK SNOW DEPTH 4.00





000
SAUS46 KLOX 302158
MTR9L2
METAR K9L2 302155Z AUTO 20003KT 10SM CLR 26/M07 A2996 RMK AO2 SLP139
T02561072 $





000
SAUS46 KLOX 302158
MTR9L2
METAR K9L2 302155Z AUTO 20003KT 10SM CLR 26/M07 A2996 RMK AO2 SLP139
T02561072 $





000
SAUS46 KLOX 302154
MTRLAX
METAR KLAX 302153Z 26016KT 10SM SCT012 BKN200 22/17 A2995 RMK AO2
SLP139 SCT012 V BKN T02170167 $





000
SAUS46 KLOX 302154
MTRMWS
METAR KMWS 302145Z 21506G11KT 21/03 RMK SNOW DEPTH 4.00





000
SAUS46 KLOX 302154
MTRLAX
METAR KLAX 302153Z 26016KT 10SM SCT012 BKN200 22/17 A2995 RMK AO2
SLP139 SCT012 V BKN T02170167 $





000
SAUS46 KLOX 302154
MTRMWS
METAR KMWS 302145Z 21506G11KT 21/03 RMK SNOW DEPTH 4.00





000
SAUS46 KLOX 302153
MTRSMX
METAR KSMX 302151Z 26013KT 10SM BKN200 22/13 A2996 RMK AO2 SLP145
T02220133





000
SAUS46 KLOX 302153
MTRSMX
METAR KSMX 302151Z 26013KT 10SM BKN200 22/13 A2996 RMK AO2 SLP145
T02220133





000
SAUS46 KLOX 302149
MTRSDB
METAR KSDB 302148Z AUTO 18014G20KT 10SM CLR 24/M03 A3008 RMK AO2
SLP132 T02391028





000
SAUS46 KLOX 302149
MTRSDB
METAR KSDB 302148Z AUTO 18014G20KT 10SM CLR 24/M03 A3008 RMK AO2
SLP132 T02391028





000
SAUS46 KLOX 302148
MTRCQT
METAR KCQT 302147Z AUTO VRB03KT 10SM CLR 23/14 A2994 RMK AO2 SLP136
T02330139





000
SAUS46 KLOX 302148
MTRCQT
METAR KCQT 302147Z AUTO VRB03KT 10SM CLR 23/14 A2994 RMK AO2 SLP136
T02330139





000
SAUS46 KLOX 302136
MTRMWS
METAR KMWS 302130Z 23500G00KT MM/03 RMK SNOW DEPTH 4.00





000
SAUS46 KLOX 302115
MTRMWS
METAR KMWS 302100Z 23009G12KT 22/04 RMK SNOW DEPTH 5.00





000
SAUS46 KLOX 302102 COR
MTR9L2
METAR K9L2 302055Z AUTO 11004KT 10SM CLR 26/M08 A2998 RMK AO2 SLP144
T02561078 58029 $





000
SAUS46 KLOX 302054
MTRMWS
METAR KMWS 302045Z 23009G12KT 23/04 RMK SNOW DEPTH 4.00





000
SAUS46 KLOX 302054
MTRLAX
METAR KLAX 302053Z 25011KT 10SM FEW020 SCT180 22/17 A2996 RMK AO2
SLP143 T02170167 $





000
SAUS46 KLOX 302053
MTRSMX
METAR KSMX 302051Z 28006KT 10SM BKN200 21/14 A2996 RMK AO2 SLP146
T02110144 58006





000
SAUS46 KLOX 302049
MTRSDB
METAR KSDB 302048Z AUTO 18012G17KT 10SM CLR 24/M04 A3009 RMK AO2
SLP136 T02391044 58019





000
SAUS46 KLOX 302048
MTRCQT
METAR KCQT 302047Z AUTO 24003KT 10SM CLR 24/14 A2995 RMK AO2 SLP139
T02390144 56009





000
SAUS46 KLOX 302036
MTRMWS
METAR KMWS 302030Z 23500G00KT MM/03 RMK SNOW DEPTH 4.00





000
SAUS46 KLOX 302015
MTRMWS
METAR KMWS 302000Z 22505G08KT 23/02 RMK SNOW DEPTH 4.00





000
SAUS46 KLOX 301957
MTRMWS
METAR KMWS 301945Z 23506G08KT 22/02 RMK SNOW DEPTH 4.00





000
SAUS46 KLOX 301957
MTR9L2
METAR K9L2 301955Z AUTO 09003KT 10SM CLR 23/M08 A3001 RMK AO2 SLP156
T02331083 $





000
SAUS46 KLOX 301954
MTRLAX
METAR KLAX 301953Z 26013KT 10SM FEW200 21/17 A2997 RMK AO2 SLP147
T02060167 CHINO RWY24 $





000
SAUS46 KLOX 301952
MTRSMX
METAR KSMX 301951Z 30009KT 10SM BKN200 22/11 A2997 RMK AO2 SLP150
T02170106





000
SAUS46 KLOX 301949
MTRSDB
METAR KSDB 301948Z AUTO 16012G19KT 10SM CLR 25/M07 A3012 RMK AO2
SLP143 T02501072





000
SAUS46 KLOX 301948
MTRCQT
METAR KCQT 301947Z AUTO VRB03KT 10SM CLR 25/15 A2995 RMK AO2 SLP140
T02500150





000
SAUS46 KLOX 301936
MTRMWS
METAR KMWS 301930Z 23500G00KT MM/00 RMK SNOW DEPTH 4.00





000
SAUS46 KLOX 301915
MTRMWS
METAR KMWS 301900Z 23008G09KT 22/00 RMK SNOW DEPTH 4.00





000
SAUS46 KLOX 301857
MTR9L2
METAR K9L2 301855Z AUTO 00000KT 10SM CLR 20/M08 A3005 RMK AO2 SLP170
T02001078 $





000
SAUS46 KLOX 301854
MTRMWS
METAR KMWS 301845Z 24004G07KT 23/00 RMK SNOW DEPTH 4.00





000
SAUS46 KLOX 301854
MTRLAX
METAR KLAX 301853Z 22008KT 10SM SCT200 23/17 A2999 RMK AO2 SLP152
T02270167 PNO $





000
SAUS46 KLOX 301853
MTRSMX
METAR KSMX 301851Z 30010KT 10SM BKN200 23/08 A2998 RMK AO2 SLP151
T02280078





000
SAUS46 KLOX 301849
MTRSDB
METAR KSDB 301848Z AUTO 16012G17KT 10SM CLR 23/M05 A3014 RMK AO2
SLP153 T02331050





000
SAUS46 KLOX 301848
MTRCQT
METAR KCQT 301847Z AUTO VRB03KT 9SM CLR 26/09 A2997 RMK AO2 SLP145
T02610094





000
SAUS46 KLOX 301836
MTRMWS
METAR KMWS 301830Z 23500G00KT MM/M01 RMK SNOW DEPTH 4.00





000
SAUS46 KLOX 301816
MTRMWS
METAR KMWS 301800Z 09503G05KT 21/M03 RMK SNOW DEPTH 3.00





000
SAUS46 KLOX 301758
MTR9L2
METAR K9L2 301755Z AUTO 17003KT 10SM CLR 16/M08 A3007 RMK AO2 SLP179
T01611078 10161 20044 50000 $





000
SAUS46 KLOX 301754
MTRMWS
METAR KMWS 301745Z 23500G00KT MM/M02 RMK SNOW DEPTH 3.00





000
SAUS46 KLOX 301754
MTRLAX
METAR KLAX 301753Z 00000KT 10SM SCT200 22/12 A2999 RMK AO2 SLP153
T02240121 10222 20161 50003





000
SAUS46 KLOX 301753
MTRSMX
METAR KSMX 301751Z 29007KT 10SM BKN200 25/05 A2998 RMK AO2 SLP150
T02500050 10250 20128 50002





000
SAUS46 KLOX 301749
MTRSDB
METAR KSDB 301748Z AUTO 00000KT 10SM CLR 23/M08 A3016 RMK AO2 SLP158
T02281083 10228 20150 50004





000
SAUS46 KLOX 301749
MTRSDB
METAR KSDB 301748Z AUTO 00000KT 10SM CLR 23/M08 A3016 RMK AO2 SLP158
T02281083 10228 20150 50004





000
SAUS46 KLOX 301748
MTRCQT
METAR KCQT 301747Z AUTO 00000KT 10SM CLR 24/09 A2997 RMK AO2 SLP148
T02440089 10244 20156 58000





000
SAUS46 KLOX 301748
MTRCQT
METAR KCQT 301747Z AUTO 00000KT 10SM CLR 24/09 A2997 RMK AO2 SLP148
T02440089 10244 20156 58000





000
SAUS46 KLOX 301715
MTRMWS
METAR KMWS 301700Z 04500G02KT 17/M03 RMK SNOW DEPTH 3.00





000
SAUS46 KLOX 301700
MTR9L2
METAR K9L2 301655Z AUTO 00000KT 10SM CLR 11/M11 A3008 RMK AO2 SLP187
T01111106 TSNO $





000
SAUS46 KLOX 301700
MTR9L2
METAR K9L2 301655Z AUTO 00000KT 10SM CLR 11/M11 A3008 RMK AO2 SLP187
T01111106 TSNO $





000
SAUS46 KLOX 301654
MTRMWS
METAR KMWS 301645Z 15003G06KT 18/M03 RMK SNOW DEPTH 3.00





000
SAUS46 KLOX 301654
MTRLAX
METAR KLAX 301653Z 08004KT 10SM SCT200 21/14 A2999 RMK AO2 SLP154
T02070138





000
SAUS46 KLOX 301654
MTRLAX
METAR KLAX 301653Z 08004KT 10SM SCT200 21/14 A2999 RMK AO2 SLP154
T02070138





000
SAUS46 KLOX 301654
MTRMWS
METAR KMWS 301645Z 15003G06KT 18/M03 RMK SNOW DEPTH 3.00





000
SAUS46 KLOX 301653
MTRSMX
METAR KSMX 301651Z 26003KT 10SM BKN200 21/06 A2999 RMK AO2 SLP155
T02110056





000
SAUS46 KLOX 301653
MTRSMX
METAR KSMX 301651Z 26003KT 10SM BKN200 21/06 A2999 RMK AO2 SLP155
T02110056





000
SAUS46 KLOX 301649
MTRSDB
METAR KSDB 301648Z AUTO 11005KT 10SM CLR 20/M07 A3016 RMK AO2 SLP163
T02001067





000
SAUS46 KLOX 301649
MTRSDB
METAR KSDB 301648Z AUTO 11005KT 10SM CLR 20/M07 A3016 RMK AO2 SLP163
T02001067





000
SAUS46 KLOX 301648
MTRCQT
METAR KCQT 301647Z AUTO 00000KT 10SM CLR 21/11 A2999 RMK AO2 SLP154
T02060106





000
SAUS46 KLOX 301648
MTRCQT
METAR KCQT 301647Z AUTO 00000KT 10SM CLR 21/11 A2999 RMK AO2 SLP154
T02060106





000
SAUS46 KLOX 301636
MTRMWS
METAR KMWS 301630Z 23500G00KT MM/M02 RMK SNOW DEPTH 3.00





000
SAUS46 KLOX 301636
MTRMWS
METAR KMWS 301630Z 23500G00KT MM/M02 RMK SNOW DEPTH 3.00





000
SAUS46 KLOX 301615
MTRMWS
METAR KMWS 301600Z 24505G07KT 17/M03 RMK SNOW DEPTH 3.00





000
SAUS46 KLOX 301557
MTR9L2
METAR K9L2 301555Z AUTO 00000KT 10SM CLR 09/M11 A3008 RMK AO2 SLP186
T00891111 TSNO $





000
SAUS46 KLOX 301554
MTRLAX
METAR KLAX 301553Z 07003KT 10SM SCT200 19/16 A3000 RMK AO2 SLP158
T01880155





000
SAUS46 KLOX 301554
MTRMWS
METAR KMWS 301545Z 20503G07KT 17/M03 RMK SNOW DEPTH 3.00





000
SAUS46 KLOX 301553
MTRSMX
METAR KSMX 301551Z 12003KT 10SM BKN200 17/06 A2998 RMK AO2 SLP154
T01720061





000
SAUS46 KLOX 301549
MTRSDB
METAR KSDB 301548Z AUTO 08006KT 10SM CLR 20/M07 A3016 RMK AO2 SLP162
T02001072





000
SAUS46 KLOX 301548
MTRCQT
METAR KCQT 301547Z AUTO 02003KT 10SM CLR 19/11 A2999 RMK AO2 SLP154
T01890106





000
SAUS46 KLOX 301536
MTRMWS
METAR KMWS 301530Z 23500G00KT MM/M03 RMK SNOW DEPTH 3.00





000
SAUS46 KLOX 301515
MTRMWS
METAR KMWS 301500Z 15505G11KT 14/M04 RMK SNOW DEPTH 3.00





000
SAUS46 KLOX 301457
MTR9L2
METAR K9L2 301455Z AUTO 00000KT 10SM CLR 07/M12 A3007 RMK AO2 SLP182
T00721117 53007 TSNO $





000
SAUS46 KLOX 301454
MTRMWS
METAR KMWS 301445Z 15008G10KT 14/M04 RMK SNOW DEPTH 3.00





000
SAUS46 KLOX 301454
MTRLAX
METAR KLAX 301453Z 08004KT 10SM SCT200 16/13 A2998 RMK AO2 SLP151
T01620128 53003





000
SAUS46 KLOX 301452
MTRSMX
METAR KSMX 301451Z 00000KT 10SM BKN200 13/06 A2997 RMK AO2 SLP150
T01330056 53007





000
SAUS46 KLOX 301449
MTRSDB
METAR KSDB 301448Z AUTO 06004KT 10SM CLR 17/M08 A3014 RMK AO2 SLP161
T01671083 53004





000
SAUS46 KLOX 301448
MTRCQT
METAR KCQT 301447Z AUTO 00000KT 10SM CLR 16/12 A2998 RMK AO2 SLP149
T01610117 53001





000
SAUS46 KLOX 301436
MTRMWS
METAR KMWS 301430Z 23500G00KT MM/M03 RMK SNOW DEPTH 3.00





000
SAUS46 KLOX 301415
MTRMWS
METAR KMWS 301400Z 10005G11KT 13/M04 RMK SNOW DEPTH 3.00





000
SAUS46 KLOX 301357
MTR9L2
METAR K9L2 301355Z AUTO 00000KT 10SM CLR 06/M12 A3006 RMK AO2 SLP177
T00561122 TSNO $





000
SAUS46 KLOX 301354
MTRLAX
METAR KLAX 301353Z 00000KT 10SM FEW010 SCT200 BKN250 18/16 A2997 RMK
AO2 SLP147 T01760160





000
SAUS46 KLOX 301354
MTRMWS
METAR KMWS 301345Z 11006G09KT 13/M04 RMK SNOW DEPTH 3.00





000
SAUS46 KLOX 301353
MTRSMX
METAR KSMX 301351Z 08004KT 10SM CLR 13/05 A2996 RMK AO2 SLP145
T01330050





000
SAUS46 KLOX 301349
MTRSDB
METAR KSDB 301348Z AUTO 08003KT 10SM CLR 17/M08 A3014 RMK AO2 SLP158
T01721078





000
SAUS46 KLOX 301348
MTRCQT
METAR KCQT 301347Z AUTO 00000KT 10SM CLR 17/12 A2997 RMK AO2 SLP146
T01670117





000
SAUS46 KLOX 301336
MTRMWS
METAR KMWS 301330Z 23500G00KT MM/M02 RMK SNOW DEPTH 3.00





000
SAUS46 KLOX 301315
MTRMWS
METAR KMWS 301300Z 10508G12KT 15/M02 RMK SNOW DEPTH 3.00





000
SAUS46 KLOX 301257
MTR9L2
METAR K9L2 301255Z AUTO 00000KT 10SM CLR 06/M13 A3005 RMK AO2 SLP170
T00561128 TSNO $





000
SAUS46 KLOX 301254
MTRMWS
METAR KMWS 301245Z 10007G10KT 15/M02 RMK SNOW DEPTH 3.00





000
SAUS46 KLOX 301254
MTRLAX
METAR KLAX 301253Z 36003KT 10SM FEW016 BKN250 17/17 A2998 RMK AO2
SLP148 T01720169





000
SAUS46 KLOX 301253
MTRSMX
METAR KSMX 301251Z AUTO 09004KT 10SM CLR 13/06 A2995 RMK AO2 SLP144
T01330061





000
SAUS46 KLOX 301249
MTRSDB
METAR KSDB 301248Z AUTO 07007KT 10SM CLR 18/M08 A3014 RMK AO2 SLP156
T01781083





000
SAUS46 KLOX 301248
MTRCQT
METAR KCQT 301247Z AUTO 00000KT 10SM CLR 16/13 A2997 RMK AO2 SLP146
T01610133





000
SAUS46 KLOX 301236
MTRMWS
METAR KMWS 301230Z 23500G00KT MM/M02 RMK SNOW DEPTH 3.00





000
SAUS46 KLOX 301215
MTRMWS
METAR KMWS 301200Z 11507G10KT 15/M03 RMK SNOW DEPTH 3.00





000
SAUS46 KLOX 301158
MTR9L2
METAR K9L2 301155Z AUTO 00000KT 10SM CLR 07/M12 A3005 RMK AO2 SLP166
T00671122 10133 20050 55004 TSNO $





000
SAUS46 KLOX 301154
MTRMWS
METAR KMWS 301145Z 12507G09KT 15/M03 RMK SNOW DEPTH 3.00





000
SAUS46 KLOX 301154
MTRLAX
METAR KLAX 301153Z 00000KT 10SM FEW016 BKN250 18/17 A2997 RMK AO2
SLP148 T01750170 10200 20178 56007





000
SAUS46 KLOX 301153
MTRSMX
METAR KSMX 301151Z AUTO 14004KT 10SM CLR 16/06 A2995 RMK AO2 SLP141
T01560056 10156 20133 56008





000
SAUS46 KLOX 301149
MTRSDB
METAR KSDB 301148Z AUTO 08009KT 10SM CLR 18/M08 A3013 RMK AO2 SLP151
T01781083 10200 20178 57007





000
SAUS46 KLOX 301148
MTRCQT
METAR KCQT 301147Z AUTO 00000KT 10SM CLR 16/13 A2997 RMK AO2 SLP147
T01610133 10189 20161 55005





000
SAUS46 KLOX 301136
MTRMWS
METAR KMWS 301130Z 23500G00KT MM/M05 RMK SNOW DEPTH 3.00





000
SAUS46 KLOX 301115
MTRMWS
METAR KMWS 301100Z 12505G07KT 13/M03 RMK SNOW DEPTH 3.00





000
SAUS46 KLOX 301057
MTR9L2
METAR K9L2 301055Z AUTO 04004KT 10SM CLR 07/M12 A3004 RMK AO2 SLP165
T00671122 TSNO $





000
SAUS46 KLOX 301057
MTR9L2
METAR K9L2 301055Z AUTO 04004KT 10SM CLR 07/M12 A3004 RMK AO2 SLP165
T00671122 TSNO $





000
SAUS46 KLOX 301054
MTRLAX
METAR KLAX 301053Z 00000KT 10SM FEW016 BKN250 18/17 A2997 RMK AO2
SLP147 T01820169





000
SAUS46 KLOX 301054
MTRMWS
METAR KMWS 301045Z 12506G06KT 13/M04 RMK SNOW DEPTH 3.00





000
SAUS46 KLOX 301054
MTRLAX
METAR KLAX 301053Z 00000KT 10SM FEW016 BKN250 18/17 A2997 RMK AO2
SLP147 T01820169





000
SAUS46 KLOX 301054
MTRMWS
METAR KMWS 301045Z 12506G06KT 13/M04 RMK SNOW DEPTH 3.00





000
SAUS46 KLOX 301053
MTRSMX
METAR KSMX 301051Z AUTO 16004KT 10SM CLR 13/06 A2996 RMK AO2 SLP144
T01330056





000
SAUS46 KLOX 301053
MTRSMX
METAR KSMX 301051Z AUTO 16004KT 10SM CLR 13/06 A2996 RMK AO2 SLP144
T01330056





000
SAUS46 KLOX 301050
MTRSDB
METAR KSDB 301048Z AUTO 06005KT 10SM CLR 18/M08 A3014 RMK AO2 SLP153
T01781083





000
SAUS46 KLOX 301050
MTRSDB
METAR KSDB 301048Z AUTO 06005KT 10SM CLR 18/M08 A3014 RMK AO2 SLP153
T01781083





000
SAUS46 KLOX 301048
MTRCQT
METAR KCQT 301047Z AUTO 00000KT 10SM CLR 16/13 A2997 RMK AO2 SLP146
T01610133





000
SAUS46 KLOX 301048
MTRCQT
METAR KCQT 301047Z AUTO 00000KT 10SM CLR 16/13 A2997 RMK AO2 SLP146
T01610133





000
SAUS46 KLOX 301036
MTRMWS
METAR KMWS 301030Z 23500G00KT MM/M02 RMK SNOW DEPTH 3.00





000
SAUS46 KLOX 301036
MTRMWS
METAR KMWS 301030Z 23500G00KT MM/M02 RMK SNOW DEPTH 3.00





000
SAUS46 KLOX 301015
MTRMWS
METAR KMWS 301000Z 10501G02KT 13/M05 RMK SNOW DEPTH 3.00





000
SAUS46 KLOX 301000
MTR9L2
METAR K9L2 300955Z AUTO 24003KT 10SM CLR 08/M12 A3006 RMK AO2 SLP169
T00781117 TSNO $





000
SAUS46 KLOX 300954
MTRMWS
METAR KMWS 300945Z 12500G02KT 13/M04 RMK SNOW DEPTH 3.00





000
SAUS46 KLOX 300954
MTRLAX
METAR KLAX 300953Z 00000KT 10SM FEW016 BKN250 18/17 A2999 RMK AO2
SLP151 T01820169





000
SAUS46 KLOX 300953
MTRSMX
METAR KSMX 300951Z AUTO 10004KT 10SM CLR 13/06 A2996 RMK AO2 SLP146
T01330056





000
SAUS46 KLOX 300949
MTRSDB
METAR KSDB 300948Z AUTO 07005KT 10SM CLR 18/M08 A3015 RMK AO2 SLP155
T01781078





000
SAUS46 KLOX 300948
MTRCQT
METAR KCQT 300947Z AUTO 00000KT 10SM CLR 17/14 A2998 RMK AO2 SLP150
T01670139





000
SAUS46 KLOX 300936
MTRMWS
METAR KMWS 300930Z 23500G00KT MM/M03 RMK SNOW DEPTH 3.00





000
SAUS46 KLOX 300915
MTRMWS
METAR KMWS 300900Z 23500G00KT 14/M04 RMK SNOW DEPTH 3.00





000
SAUS46 KLOX 300857
MTR9L2
METAR K9L2 300855Z AUTO 00000KT 10SM CLR 08/M12 A3006 RMK AO2 SLP172
T00781122 58002 TSNO $





000
SAUS46 KLOX 300855
MTRLAX
METAR KLAX 300853Z 00000KT 10SM FEW016 BKN250 19/18 A2999 RMK AO2
SLP154 T01870176 58002





000
SAUS46 KLOX 300854
MTRMWS
METAR KMWS 300845Z 21501G01KT 13/M05 RMK SNOW DEPTH 3.00





000
SAUS46 KLOX 300852
MTRSMX
METAR KSMX 300851Z AUTO 15003KT 10SM CLR 14/06 A2997 RMK AO2 SLP149
T01440061 56006





000
SAUS46 KLOX 300849
MTRSDB
METAR KSDB 300848Z AUTO 08009KT 10SM CLR 19/M08 A3016 RMK AO2 SLP156
T01891083 56009





000
SAUS46 KLOX 300849
MTRCQT
METAR KCQT 300847Z AUTO 00000KT 10SM CLR 17/14 A2999 RMK AO2 SLP152
T01720139 58002





000
SAUS46 KLOX 300836
MTRMWS
METAR KMWS 300830Z 23500G00KT MM/M04 RMK SNOW DEPTH 3.00





000
SAUS46 KLOX 300815
MTRMWS
METAR KMWS 300800Z 16001G01KT 13/M05 RMK SNOW DEPTH 3.00





000
SAUS46 KLOX 300757
MTR9L2
METAR K9L2 300755Z AUTO 00000KT 10SM CLR 10/M11 A3006 RMK AO2 SLP173
T01001111 402890028 TSNO $





000
SAUS46 KLOX 300755
MTRLAX
METAR KLAX 300753Z 35003KT 10SM FEW016 SCT250 20/18 A3000 RMK AO2
SLP156 T01970184





000
SAUS46 KLOX 300754
MTRMWS
METAR KMWS 300745Z 23500G00KT MM/M03 RMK SNOW DEPTH 3.00





000
SAUS46 KLOX 300753
MTRSMX
METAR KSMX 300751Z AUTO 12004KT 10SM CLR 14/07 A2998 RMK AO2 SLP151
T01390072 403220106





000
SAUS46 KLOX 300749
MTRSDB
METAR KSDB 300748Z AUTO 07010KT 10SM CLR 19/M08 A3016 RMK AO2 SLP160
T01891083 402500150





000
SAUS46 KLOX 300748
MTRCQT
METAR KCQT 300747Z AUTO 00000KT 10SM CLR 17/13 A2999 RMK AO2 SLP154
T01720133 402940150





000
SAUS46 KLOX 300736
MTRMWS
METAR KMWS 300730Z 23500G00KT MM/M04 RMK SNOW DEPTH 3.00





000
SAUS46 KLOX 300715
MTRMWS
METAR KMWS 300700Z 13502G02KT 15/M05 RMK SNOW DEPTH 3.00





000
SAUS46 KLOX 300657
MTR9L2
METAR K9L2 300655Z AUTO 31003KT 10SM CLR 11/M11 A3007 RMK AO2 SLP177
T01061106 TSNO $





000
SAUS46 KLOX 300654
MTRLAX
METAR KLAX 300653Z 00000KT 10SM FEW200 20/17 A3001 RMK AO2 SLP158
T01990166





000
SAUS46 KLOX 300654
MTRMWS
METAR KMWS 300645Z 11502G02KT 15/M05 RMK SNOW DEPTH 3.00





000
SAUS46 KLOX 300653
MTRSMX
METAR KSMX 300651Z AUTO 00000KT 10SM CLR 14/07 A2998 RMK AO2 SLP151
T01440067





000
SAUS46 KLOX 300649
MTRSDB
METAR KSDB 300648Z AUTO 08011KT 10SM CLR 19/M08 A3017 RMK AO2 SLP164
T01941083





000
SAUS46 KLOX 300648
MTRCQT
METAR KCQT 300647Z AUTO 00000KT 10SM CLR 18/14 A3000 RMK AO2 SLP155
T01830139





000
SAUS46 KLOX 300636
MTRMWS
METAR KMWS 300630Z 23500G00KT MM/M04 RMK SNOW DEPTH 3.00





000
SAUS46 KLOX 300615
MTRMWS
METAR KMWS 300600Z 14502G03KT 15/M05 RMK SNOW DEPTH 3.00





000
SAUS46 KLOX 300557
MTR9L2
METAR K9L2 300555Z AUTO 00000KT 10SM CLR 12/M11 A3007 RMK AO2 SLP179
T01171111 10283 20111 50005 $





000
SAUS46 KLOX 300554
MTRMWS
METAR KMWS 300545Z 23500G00KT MM/M04 RMK SNOW DEPTH 3.00





000
SAUS46 KLOX 300554
MTRLAX
METAR KLAX 300553Z 00000KT 10SM FEW200 20/17 A3000 RMK AO2 SLP155
T01990169 10217 20200 53012





000
SAUS46 KLOX 300553
MTRSMX
METAR KSMX 300551Z AUTO 14004KT 10SM CLR 14/06 A2999 RMK AO2 SLP155
T01440061 10261 20144 58000





000
SAUS46 KLOX 300549
MTRSDB
METAR KSDB 300548Z AUTO 09007KT 10SM CLR 20/M08 A3019 RMK AO2 SLP169
T02001083 10233 20194 51002





000
SAUS46 KLOX 300548
MTRCQT
METAR KCQT 300547Z AUTO 00000KT 10SM CLR 19/14 A2999 RMK AO2 SLP154
T01940139 10256 20189 53012





000
SAUS46 KLOX 300536
MTRMWS
METAR KMWS 300530Z 23500G00KT MM/M04 RMK SNOW DEPTH 3.00





000
SAUS46 KLOX 300515
MTRMWS
METAR KMWS 300500Z 13505G05KT 16/M05 RMK SNOW DEPTH 3.00





000
SAUS46 KLOX 300457
MTR9L2
METAR K9L2 300455Z AUTO VRB05KT 10SM CLR 13/M10 A3007 RMK AO2 SLP184
T01331100 $





000
SAUS46 KLOX 300457
MTR9L2
METAR K9L2 300455Z AUTO VRB05KT 10SM CLR 13/M10 A3007 RMK AO2 SLP184
T01331100 $





000
SAUS46 KLOX 300454
MTRMWS
METAR KMWS 300445Z 11504G05KT 16/M05 RMK SNOW DEPTH 3.00





000
SAUS46 KLOX 300454
MTRLAX
METAR KLAX 300453Z 00000KT 10SM CLR 21/15 A2998 RMK AO2 SLP150
T02090150





000
SAUS46 KLOX 300454
MTRMWS
METAR KMWS 300445Z 11504G05KT 16/M05 RMK SNOW DEPTH 3.00





000
SAUS46 KLOX 300454
MTRLAX
METAR KLAX 300453Z 00000KT 10SM CLR 21/15 A2998 RMK AO2 SLP150
T02090150





000
SAUS46 KLOX 300453
MTRSMX
METAR KSMX 300451Z AUTO 14004KT 10SM CLR 16/07 A2999 RMK AO2 SLP156
T01610067





000
SAUS46 KLOX 300453
MTRSMX
METAR KSMX 300451Z AUTO 14004KT 10SM CLR 16/07 A2999 RMK AO2 SLP156
T01610067





000
SAUS46 KLOX 300449
MTRSDB
METAR KSDB 300448Z AUTO 09005KT 10SM CLR 20/M08 A3018 RMK AO2 SLP171
T02001078





000
SAUS46 KLOX 300449
MTRSDB
METAR KSDB 300448Z AUTO 09005KT 10SM CLR 20/M08 A3018 RMK AO2 SLP171
T02001078





000
SAUS46 KLOX 300448
MTRCQT
METAR KCQT 300447Z AUTO 00000KT 10SM CLR 19/14 A2997 RMK AO2 SLP147
T01940139





000
SAUS46 KLOX 300436
MTRMWS
METAR KMWS 300430Z 23500G00KT MM/M05 RMK SNOW DEPTH 3.00





000
SAUS46 KLOX 300415
MTRMWS
METAR KMWS 300400Z 04502G03KT 15/M07 RMK SNOW DEPTH 3.00





000
SAUS46 KLOX 300415
MTRMWS
METAR KMWS 300400Z 04502G03KT 15/M07 RMK SNOW DEPTH 3.00





000
SAUS46 KLOX 300357
MTR9L2
METAR K9L2 300355Z AUTO 30003KT 10SM CLR 14/M10 A3006 RMK AO2 SLP180
T01441100 $





000
SAUS46 KLOX 300354
MTRMWS
METAR KMWS 300345Z 04003G03KT 16/M07 RMK SNOW DEPTH 3.00





000
SAUS46 KLOX 300354
MTRLAX
METAR KLAX 300353Z 00000KT 10SM CLR 21/15 A2996 RMK AO2 SLPNO
T02090150





000
SAUS46 KLOX 300353
MTRSMX
METAR KSMX 300351Z AUTO 00000KT 10SM CLR 17/10 A2999 RMK AO2 SLP158
T01720100





000
SAUS46 KLOX 300349
MTRSDB
METAR KSDB 300348Z AUTO 11006KT 10SM CLR 19/M08 A3018 RMK AO2 SLP174
T01941078





000
SAUS46 KLOX 300348
MTRCQT
METAR KCQT 300347Z AUTO 00000KT 10SM CLR 19/14 A2996 RMK AO2 SLP144
T01940139





000
SAUS46 KLOX 300336
MTRMWS
METAR KMWS 300330Z 23500G00KT MM/M07 RMK SNOW DEPTH 3.00





000
SAUS46 KLOX 300315
MTRMWS
METAR KMWS 300300Z 05503G04KT 15/M07 RMK SNOW DEPTH 3.00





000
SAUS46 KLOX 300257
MTR9L2
METAR K9L2 300255Z AUTO 30006KT 10SM CLR 17/M09 A3005 RMK AO2 SLP176
T01721094 53005 $





000
SAUS46 KLOX 300254
MTRMWS
METAR KMWS 300245Z 05503G05KT 15/M07 RMK SNOW DEPTH 3.00





000
SAUS46 KLOX 300254
MTRLAX
METAR KLAX 300253Z 20004KT 10SM CLR 20/15 A2996 RMK AO2 SLPNO
T02020150 50000





000
SAUS46 KLOX 300253
MTRSMX
METAR KSMX 300251Z 00000KT 10SM CLR 18/11 A2999 RMK AO2 SLP158
T01830111 55000





000
SAUS46 KLOX 300249
MTRSDB
METAR KSDB 300248Z AUTO 10006KT 10SM CLR 19/M08 A3018 RMK AO2 SLP173
T01941078 53000





000
SAUS46 KLOX 300249
MTRCQT
METAR KCQT 300247Z AUTO 00000KT 10SM CLR 20/14 A2996 RMK AO2 SLP143
T02000144 50003





000
SAUS46 KLOX 300236
MTRMWS
METAR KMWS 300230Z 23500G00KT MM/M04 RMK SNOW DEPTH 3.00





000
SAUS46 KLOX 300215
MTRMWS
METAR KMWS 300200Z 03003G04KT 15/M03 RMK SNOW DEPTH 3.00





000
SAUS46 KLOX 300157
MTRMWS
METAR KMWS 300145Z  0501G02KT 15/M04 RMK SNOW DEPTH 3.00





000
SAUS46 KLOX 300157
MTR9L2
METAR K9L2 300155Z AUTO 00000KT 10SM CLR 19/M09 A3004 RMK AO2 SLP172
T01941094 TSNO $





000
SAUS46 KLOX 300155
MTRLAX
METAR KLAX 300153Z 21004KT 10SM FEW250 21/16 A2997 RMK AO2 SLPNO
T02050156





000
SAUS46 KLOX 300152
MTRSMX
METAR KSMX 300151Z 00000KT 10SM CLR 19/12 A2999 RMK AO2 SLP157
T01890117





000
SAUS46 KLOX 300149
MTRSDB
METAR KSDB 300148Z AUTO 10008KT 10SM CLR 20/M08 A3018 RMK AO2 SLP172
T02001083





000
SAUS46 KLOX 300149
MTRCQT
METAR KCQT 300147Z AUTO VRB03KT 10SM CLR 22/13 A2996 RMK AO2 SLP143
T02170133





000
SAUS46 KLOX 300136
MTRMWS
METAR KMWS 300130Z 23500G00KT MM/M02 RMK SNOW DEPTH 3.00





000
SAUS46 KLOX 300115
MTRMWS
METAR KMWS 300100Z 01001G02KT 17/M02 RMK SNOW DEPTH 3.00





000
SAUS46 KLOX 300057
MTR9L2
METAR K9L2 300055Z AUTO 09004KT 10SM CLR 26/M08 A3003 RMK AO2 SLP164
T02611083 $





000
SAUS46 KLOX 300054
MTRLAX
METAR KLAX 300053Z 22004KT 10SM FEW250 21/15 A2996 RMK AO2 SLPNO
T02100150





000
SAUS46 KLOX 300054
MTRMWS
METAR KMWS 300045Z 32503G05KT 18/M02 RMK SNOW DEPTH 3.00





000
SAUS46 KLOX 300053
MTRSMX
METAR KSMX 300051Z 33007KT 10SM CLR 23/10 A2999 RMK AO2 SLP155
T02280100





000
SAUS46 KLOX 300049
MTRSDB
METAR KSDB 300048Z AUTO 08010KT 10SM CLR 21/M10 A3017 RMK AO2 SLP169
T02111100





000
SAUS46 KLOX 300048
MTRCQT
METAR KCQT 300047Z AUTO 27006KT 10SM CLR 23/11 A2995 RMK AO2 SLP140
T02330111





000
SAUS46 KLOX 300036
MTRMWS
METAR KMWS 300030Z 23500G00KT MM/00 RMK SNOW DEPTH 3.00





000
SAUS46 KLOX 300015
MTRMWS
METAR KMWS 300000Z 23504G07KT 21/01 RMK SNOW DEPTH 4.00





000
SAUS46 KLOX 292357
MTR9L2
METAR K9L2 292355Z AUTO 09007KT 10SM CLR 28/M08 A3004 RMK AO2 SLP164
T02831078 10289 20156 56013 $





000
SAUS46 KLOX 292355
MTRLAX
METAR KLAX 292353Z 24005KT 10SM FEW250 22/14 A2996 RMK AO2 SLPNO
T02150144 56005





000
SAUS46 KLOX 292354
MTRMWS
METAR KMWS 292345Z 23004G07KT 21/02 RMK SNOW DEPTH 4.00





000
SAUS46 KLOX 292352
MTRSMX
METAR KSMX 292351Z 32008KT 10SM CLR 26/07 A2999 RMK AO2 SLP157
T02610067 10322 20256 53002 $





000
SAUS46 KLOX 292349
MTRSDB
METAR KSDB 292348Z AUTO 11007KT 100V160 10SM CLR 23/M09 A3018 RMK
AO2 SLP170 T02331094 10250 20222 56005





000
SAUS46 KLOX 292348
MTRCQT
METAR KCQT 292347Z AUTO 26005KT 10SM CLR 26/09 A2995 RMK AO2 SLP139
T02560094 10294 20256 56004





000
SAUS46 KLOX 292336
MTRMWS
METAR KMWS 292330Z 23500G00KT MM/02 RMK SNOW DEPTH 4.00





000
SAUS46 KLOX 292315
MTRMWS
METAR KMWS 292300Z 23509G12KT 21/02 RMK SNOW DEPTH 4.00





000
SAUS46 KLOX 292257
MTR9L2
METAR K9L2 292255Z AUTO 10006KT 10SM CLR 28/M08 A3005 RMK AO2 SLP167
T02831078 $





000
SAUS46 KLOX 292254
MTRMWS
METAR KMWS 292245Z 22508G12KT 23/03 RMK SNOW DEPTH 5.00





000
SAUS46 KLOX 292254
MTRMWS
METAR KMWS 292245Z 22508G12KT 23/03 RMK SNOW DEPTH 5.00





000
SAUS46 KLOX 292254
MTRLAX
METAR KLAX 292253Z 25004KT 10SM FEW250 23/14 A2997 RMK AO2 SLPNO
T02250139





000
SAUS46 KLOX 292254
MTRLAX
METAR KLAX 292253Z 25004KT 10SM FEW250 23/14 A2997 RMK AO2 SLPNO
T02250139





000
SAUS46 KLOX 292252
MTRSMX
METAR KSMX 292251Z 32010KT 10SM CLR 26/09 A2999 RMK AO2 SLP155
T02610089





000
SAUS46 KLOX 292252
MTRSMX
METAR KSMX 292251Z 32010KT 10SM CLR 26/09 A2999 RMK AO2 SLP155
T02610089





000
SAUS46 KLOX 292249
MTRSDB
METAR KSDB 292248Z AUTO 07008KT 10SM CLR 24/M10 A3018 RMK AO2 SLP171
T02441100





000
SAUS46 KLOX 292249
MTRSDB
METAR KSDB 292248Z AUTO 07008KT 10SM CLR 24/M10 A3018 RMK AO2 SLP171
T02441100





000
SAUS46 KLOX 292249
MTRCQT
METAR KCQT 292247Z AUTO VRB03KT 10SM CLR 27/11 A2995 RMK AO2 SLP139
T02670106





000
SAUS46 KLOX 292249
MTRCQT
METAR KCQT 292247Z AUTO VRB03KT 10SM CLR 27/11 A2995 RMK AO2 SLP139
T02670106





000
SAUS46 KLOX 292236
MTRMWS
METAR KMWS 292230Z 23500G00KT MM/01 RMK SNOW DEPTH 5.00





000
SAUS46 KLOX 292236
MTRMWS
METAR KMWS 292230Z 23500G00KT MM/01 RMK SNOW DEPTH 5.00





000
SAUS46 KLOX 292215
MTRMWS
METAR KMWS 292200Z 25008G11KT 23/02 RMK SNOW DEPTH 4.00





000
SAUS46 KLOX 292157
MTR9L2
METAR K9L2 292155Z AUTO VRB03KT 10SM CLR 28/M08 A3006 RMK AO2 SLP170
T02781083 $





000
SAUS46 KLOX 292154
MTRMWS
METAR KMWS 292145Z 23500G00KT MM/02 RMK SNOW DEPTH 4.00





000
SAUS46 KLOX 292154
MTRLAX
METAR KLAX 292153Z 25004KT 10SM FEW090 23/17 A2997 RMK AO2 SLPNO
T02330167





000
SAUS46 KLOX 292152
MTRSMX
METAR KSMX 292151Z 33012KT 10SM CLR 27/09 A2998 RMK AO2 SLP153
T02670089





000
SAUS46 KLOX 292149
MTRSDB
METAR KSDB 292148Z AUTO 08013G18KT 10SM CLR 25/M11 A3018 RMK AO2
SLP169 T02501111





000
SAUS46 KLOX 292148
MTRCQT
METAR KCQT 292147Z AUTO VRB03KT 10SM CLR 27/13 A2995 RMK AO2 SLP139
T02670128





000
SAUS46 KLOX 292136
MTRMWS
METAR KMWS 292130Z 23500G00KT MM/01 RMK SNOW DEPTH 4.00





000
SAUS46 KLOX 292115
MTRMWS
METAR KMWS 292100Z 23500G00KT MM/02 RMK SNOW DEPTH 5.00





000
SAUS46 KLOX 292057
MTR9L2
METAR K9L2 292055Z AUTO 20003KT 10SM CLR 26/M08 A3008 RMK AO2 SLP176
T02611078 58027 $





000
SAUS46 KLOX 292054
MTRMWS
METAR KMWS 292045Z 23004G08KT 22/01 RMK SNOW DEPTH 4.00





000
SAUS46 KLOX 292054
MTRLAX
METAR KLAX 292053Z 25004KT 10SM FEW100 23/18 A2998 RMK AO2 SLPNO
T02260180 58018





000
SAUS46 KLOX 292052
MTRSMX
METAR KSMX 292051Z 30011KT 10SM CLR 28/08 A2999 RMK AO2 SLP154
T02780078 56018





000
SAUS46 KLOX 292049
MTRSDB
METAR KSDB 292048Z AUTO 07011G20KT 10SM CLR 25/M09 A3020 RMK AO2
SLP173 T02501089 58014





000
SAUS46 KLOX 292048
MTRCQT
METAR KCQT 292047Z AUTO 00000KT 10SM CLR 28/11 A2996 RMK AO2 SLP143
T02830111 58019





000
SAUS46 KLOX 292036
MTRMWS
METAR KMWS 292030Z 23500G00KT MM/01 RMK SNOW DEPTH 4.00





000
SAUS46 KLOX 292015
MTRMWS
METAR KMWS 292000Z 23008G10KT 22/M01 RMK SNOW DEPTH 4.00





000
SAUS46 KLOX 291957
MTR9L2
METAR K9L2 291955Z AUTO 00000KT 10SM CLR 24/M07 A3011 RMK AO2 SLP188
T02391067 $





000
SAUS46 KLOX 291954
MTRLAX
METAR KLAX 291953Z 24005KT 10SM CLR 24/19 A3001 RMK AO2 SLPNO
T02420191





000
SAUS46 KLOX 291954
MTRMWS
METAR KMWS 291945Z 23009G13KT 21/M02 RMK SNOW DEPTH 4.00





000
SAUS46 KLOX 291953
MTRSMX
METAR KSMX 291951Z 28008KT 10SM CLR 32/02 A3000 RMK AO2 SLP157
T03170017





000
SAUS46 KLOX 291949
MTRSDB
METAR KSDB 291948Z AUTO 08010G19KT 10SM CLR 24/M08 A3022 RMK AO2
SLP182 T02441083





000
SAUS46 KLOX 291948
MTRCQT
METAR KCQT 291947Z AUTO 00000KT 10SM CLR 29/11 A2999 RMK AO2 SLP151
T02890106





000
SAUS46 KLOX 291936
MTRMWS
METAR KMWS 291930Z 23500G00KT MM/00 RMK SNOW DEPTH 4.00





000
SAUS46 KLOX 291915
MTRMWS
METAR KMWS 291900Z 22506G09KT 21/01 RMK SNOW DEPTH 4.00





000
SAUS46 KLOX 291858
MTR9L2
METAR K9L2 291855Z AUTO 00000KT 10SM CLR 20/M07 A3015 RMK AO2 SLP204
T02001067 $





000
SAUS46 KLOX 291854
MTRMWS
METAR KMWS 291845Z 22003G06KT 22/01 RMK SNOW DEPTH 4.00





000
SAUS46 KLOX 291854
MTRLAX
METAR KLAX 291853Z 24004KT 10SM CLR 23/16 A3003 RMK AO2 SLPNO
T02330158





000
SAUS46 KLOX 291853
MTRSMX
METAR KSMX 291851Z 00000KT 10SM CLR 29/01 A3002 RMK AO2 SLP166
T02940006





000
SAUS46 KLOX 291849
MTRSDB
METAR KSDB 291848Z AUTO 08011KT 060V120 10SM CLR 24/M08 A3024 RMK
AO2 SLP189 T02391083





000
SAUS46 KLOX 291848
MTRCQT
METAR KCQT 291847Z AUTO 00000KT 10SM CLR 28/09 A3001 RMK AO2 SLP159
T02830089





000
SAUS46 KLOX 291836
MTRMWS
METAR KMWS 291830Z 23500G00KT MM/01 RMK SNOW DEPTH 4.00





000
SAUS46 KLOX 291815
MTRMWS
METAR KMWS 291800Z 26502G04KT 23/00 RMK SNOW DEPTH 3.00





000
SAUS46 KLOX 291757
MTR9L2
METAR K9L2 291755Z AUTO 00000KT 10SM CLR 16/M07 A3016 RMK AO2 SLP213
T01561067 10156 20028 50006 $





000
SAUS46 KLOX 291754
MTRMWS
METAR KMWS 291745Z 35501G03KT 22/M02 RMK SNOW DEPTH 3.00





000
SAUS46 KLOX 291754
MTRLAX
METAR KLAX 291753Z 00000KT 10SM FEW010 24/13 A3003 RMK AO2 SLPNO FU
FEW010 T02350129





000
SAUS46 KLOX 291752
MTRSMX
METAR KSMX 291751Z VRB03KT 10SM CLR 27/02 A3004 RMK AO2 SLP172
T02670017 10267 20106 50002





000
SAUS46 KLOX 291749
MTRSDB
METAR KSDB 291748Z AUTO 09014KT 10SM CLR 22/M08 A3024 RMK AO2 SLP192
T02221078 10222 20150 51013





000
SAUS46 KLOX 291748
MTRCQT
METAR KCQT 291747Z AUTO 00000KT 10SM CLR 27/09 A3002 RMK AO2 SLP162
T02670094 10267 20150 58002





000
SAUS46 KLOX 291736
MTRMWS
METAR KMWS 291730Z 23500G00KT MM/M02 RMK SNOW DEPTH 3.00





000
SAUS46 KLOX 291715
MTRMWS
METAR KMWS 291700Z 23002G04KT 21/M01 RMK SNOW DEPTH 4.00





000
SAUS46 KLOX 291657
MTR9L2
METAR K9L2 291655Z AUTO 00000KT 10SM CLR 11/M08 A3017 RMK AO2 SLP218
T01111078 $





000
SAUS46 KLOX 291654
MTRMWS
METAR KMWS 291645Z 23502G04KT 20/M02 RMK SNOW DEPTH 3.00





000
SAUS46 KLOX 291654
MTRLAX
METAR KLAX 291653Z 00000KT 10SM FEW010 22/14 A3004 RMK AO2 SLPNO FU
FEW010 T02170143





000
SAUS46 KLOX 291652
MTRSMX
METAR KSMX 291651Z 00000KT 10SM CLR 24/03 A3006 RMK AO2 SLP178
T02440028





000
SAUS46 KLOX 291649
MTRSDB
METAR KSDB 291648Z AUTO 07015KT 10SM CLR 20/M07 A3024 RMK AO2 SLP193
T02001067





000
SAUS46 KLOX 291648
MTRCQT
METAR KCQT 291647Z AUTO 00000KT 10SM CLR 23/11 A3003 RMK AO2 SLP166
T02330106





000
SAUS46 KLOX 291636
MTRMWS
METAR KMWS 291630Z 23500G00KT MM/M01 RMK SNOW DEPTH 3.00





000
SAUS46 KLOX 291636
MTRMWS
METAR KMWS 291630Z 23500G00KT MM/M01 RMK SNOW DEPTH 3.00





000
SAUS46 KLOX 291615
MTRMWS
METAR KMWS 291600Z 05501G02KT 19/M03 RMK SNOW DEPTH 3.00





000
SAUS46 KLOX 291557
MTR9L2
METAR K9L2 291555Z AUTO 18003KT 10SM CLR 08/M11 A3017 RMK AO2 SLP216
T00831106 TSNO $





000
SAUS46 KLOX 291554
MTRMWS
METAR KMWS 291545Z 35001G02KT 18/M03 RMK SNOW DEPTH 3.00





000
SAUS46 KLOX 291554
MTRLAX
METAR KLAX 291553Z 00000KT 10SM FEW010 19/15 A3004 RMK AO2 SLPNO FU
FEW010 T01910153 $





000
SAUS46 KLOX 291552
MTRSMX
METAR KSMX 291551Z 00000KT 10SM CLR 19/03 A3005 RMK AO2 SLP178
T01940033





000
SAUS46 KLOX 291549
MTRSDB
METAR KSDB 291548Z AUTO 07014KT 10SM CLR 18/M07 A3022 RMK AO2 SLP191
T01831072





000
SAUS46 KLOX 291548
MTRCQT
METAR KCQT 291547Z AUTO 00000KT 10SM CLR 19/11 A3003 RMK AO2 SLP168
T01940106





000
SAUS46 KLOX 291536
MTRMWS
METAR KMWS 291530Z 23500G00KT MM/M03 RMK SNOW DEPTH 3.00





000
SAUS46 KLOX 291515
MTRMWS
METAR KMWS 291500Z 24502G02KT 15/M02 RMK SNOW DEPTH 3.00





000
SAUS46 KLOX 291457
MTR9L2
METAR K9L2 291455Z AUTO 00000KT 10SM CLR 06/M09 A3014 RMK AO2 SLP210
T00611094 53009 TSNO $





000
SAUS46 KLOX 291454
MTRLAX
METAR KLAX 291453Z 00000KT 10SM CLR 18/14 A3003 RMK AO2 SLP167
T01790141 $





000
SAUS46 KLOX 291454
MTRMWS
METAR KMWS 291445Z 23503G04KT 14/M02 RMK SNOW DEPTH 3.00





000
SAUS46 KLOX 291452
MTRSMX
METAR KSMX 291451Z 11004KT 10SM CLR 12/05 A3003 RMK AO2 SLP172
T01220050 53010





000
SAUS46 KLOX 291449
MTRSDB
METAR KSDB 291448Z AUTO 07016KT 10SM CLR 17/M07 A3020 RMK AO2 SLP184
T01671072 53005





000
SAUS46 KLOX 291448
MTRCQT
METAR KCQT 291447Z AUTO 00000KT 10SM CLR 16/11 A3002 RMK AO2 SLP165
T01610111 51010





000
SAUS46 KLOX 291436
MTRMWS
METAR KMWS 291430Z 23500G00KT MM/M02 RMK SNOW DEPTH 3.00





000
SAUS46 KLOX 291415
MTRMWS
METAR KMWS 291400Z 21502G03KT 13/M04 RMK SNOW DEPTH 3.00





000
SAUS46 KLOX 291357
MTR9L2
METAR K9L2 291355Z AUTO 33004KT 10SM CLR 03/M10 A3013 RMK AO2 SLP205
T00331100 TSNO $





000
SAUS46 KLOX 291356
MTRLAX
METAR KLAX 291354Z 00000KT 10SM FEW200 18/14 A3001 RMK AO2 SLP162
T01810144 $





000
SAUS46 KLOX 291354
MTRMWS
METAR KMWS 291345Z 18003G04KT 13/M05 RMK SNOW DEPTH 3.00





000
SAUS46 KLOX 291353
MTRSMX
METAR KSMX 291351Z 09003KT 10SM CLR 12/04 A3002 RMK AO2 SLP168
T01170044





000
SAUS46 KLOX 291349
MTRSDB
METAR KSDB 291348Z AUTO 08012KT 10SM CLR 16/M07 A3019 RMK AO2 SLP180
T01611072





000
SAUS46 KLOX 291348
MTRCQT
METAR KCQT 291347Z AUTO 00000KT 9SM CLR 15/12 A3001 RMK AO2 SLP161
T01500117





000
SAUS46 KLOX 291336
MTRMWS
METAR KMWS 291330Z 23500G00KT MM/M04 RMK SNOW DEPTH 3.00





000
SAUS46 KLOX 291315
MTRMWS
METAR KMWS 291300Z 25003G04KT 13/M04 RMK SNOW DEPTH 3.00





000
SAUS46 KLOX 291257
MTR9L2
METAR K9L2 291255Z AUTO 00000KT 10SM CLR 04/M10 A3012 RMK AO2 SLP199
T00391100 TSNO $





000
SAUS46 KLOX 291254
MTRMWS
METAR KMWS 291245Z 22503G03KT 13/M04 RMK SNOW DEPTH 3.00





000
SAUS46 KLOX 291254
MTRLAX
METAR KLAX 291253Z VRB03KT 10SM CLR 18/16 A3001 RMK AO2 SLP162
T01760162 $





000
SAUS46 KLOX 291253
MTRSMX
METAR KSMX 291251Z AUTO 15004KT 10SM CLR 11/04 A3001 RMK AO2 SLP164
T01110044





000
SAUS46 KLOX 291249
MTRSDB
METAR KSDB 291248Z AUTO 06011KT 10SM CLR 16/M07 A3019 RMK AO2 SLP177
T01611072





000
SAUS46 KLOX 291248
MTRCQT
METAR KCQT 291247Z AUTO 00000KT 10SM CLR 15/12 A3001 RMK AO2 SLP160
T01500117





000
SAUS46 KLOX 291236
MTRMWS
METAR KMWS 291230Z 23500G00KT MM/M03 RMK SNOW DEPTH 3.00





000
SAUS46 KLOX 291215
MTRMWS
METAR KMWS 291200Z 24004G06KT 13/M04 RMK SNOW DEPTH 3.00





000
SAUS46 KLOX 291157
MTR9L2
METAR K9L2 291155Z AUTO 00000KT 10SM CLR 05/M09 A3011 RMK AO2 SLP193
T00501094 10122 20044 53001 TSNO $





000
SAUS46 KLOX 291154
MTRMWS
METAR KMWS 291145Z 24503G04KT 12/M06 RMK SNOW DEPTH 3.00





000
SAUS46 KLOX 291154
MTRLAX
METAR KLAX 291153Z 00000KT 10SM CLR 19/17 A3000 RMK AO2 SLP156
T01850165 10194 20167 56007 $





000
SAUS46 KLOX 291153
MTRSMX
METAR KSMX 291151Z AUTO 09004KT 10SM CLR 11/05 A3000 RMK AO2 SLP161
T01110050 10144 20106 56007





000
SAUS46 KLOX 291149
MTRSDB
METAR KSDB 291148Z AUTO 02005KT 10SM CLR 15/M06 A3019 RMK AO2 SLP175
T01501056 10183 20150 56005





000
SAUS46 KLOX 291148
MTRCQT
METAR KCQT 291147Z AUTO 00000KT 10SM CLR 16/12 A2999 RMK AO2 SLP155
T01560122 10183 20156 56007





000
SAUS46 KLOX 291136
MTRMWS
METAR KMWS 291130Z 23500G00KT MM/M05 RMK SNOW DEPTH 3.00





000
SAUS46 KLOX 291115
MTRMWS
METAR KMWS 291100Z 32001G03KT 12/M05 RMK SNOW DEPTH 3.00





000
SAUS46 KLOX 291059
MTR9L2
METAR K9L2 291055Z AUTO 35003KT 10SM CLR 06/M09 A3011 RMK AO2 SLP191
T00561089 TSNO $





000
SAUS46 KLOX 291054
MTRMWS
METAR KMWS 291045Z 26503G05KT 13/M04 RMK SNOW DEPTH 3.00





000
SAUS46 KLOX 291054
MTRLAX
METAR KLAX 291053Z 00000KT 10SM CLR 19/17 A3000 RMK AO2 SLP158
T01850165 $





000
SAUS46 KLOX 291053
MTRSMX
METAR KSMX 291051Z AUTO 16003KT 10SM CLR 12/05 A3001 RMK AO2 SLP162
T01170050





000
SAUS46 KLOX 291049
MTRSDB
METAR KSDB 291048Z AUTO 02004KT 10SM CLR 16/M07 A3019 RMK AO2 SLP174
T01561067





000
SAUS46 KLOX 291049
MTRSDB
METAR KSDB 291048Z AUTO 02004KT 10SM CLR 16/M07 A3019 RMK AO2 SLP174
T01561067





000
SAUS46 KLOX 291048
MTRCQT
METAR KCQT 291047Z AUTO 00000KT 10SM CLR 16/13 A3000 RMK AO2 SLP156
T01610128





000
SAUS46 KLOX 291048
MTRCQT
METAR KCQT 291047Z AUTO 00000KT 10SM CLR 16/13 A3000 RMK AO2 SLP156
T01610128





000
SAUS46 KLOX 291036
MTRMWS
METAR KMWS 291030Z 23500G00KT MM/M02 RMK SNOW DEPTH 3.00





000
SAUS46 KLOX 291036
MTRMWS
METAR KMWS 291030Z 23500G00KT MM/M02 RMK SNOW DEPTH 3.00





000
SAUS46 KLOX 291016
MTRLAX
METAR KLAX 290953Z COR VRB03KT 10SM CLR 19/18 A3001 RMK AO2 SLP157 $





000
SAUS46 KLOX 291015
MTRMWS
METAR KMWS 291000Z 33503G04KT 13/M03 RMK SNOW DEPTH 3.00





000
SAUS46 KLOX 290957
MTRMWS
METAR KMWS 290945Z 31501G02KT 13/M03 RMK SNOW DEPTH 3.00





000
SAUS46 KLOX 290957
MTR9L2
METAR K9L2 290955Z AUTO 00000KT 10SM CLR 07/M08 A3011 RMK AO2 SLP191
T00671078 TSNO $





000
SAUS46 KLOX 290954
MTRLAX
METAR KLAX 290953Z CLR A3001 RMK AO2 SLPNO $





000
SAUS46 KLOX 290952
MTRSMX
METAR KSMX 290951Z AUTO 11003KT 10SM CLR 12/06 A3002 RMK AO2 SLP167
T01220056





000
SAUS46 KLOX 290951
MTRSDB
METAR KSDB 290948Z AUTO 03004KT 10SM CLR 16/M07 A3020 RMK AO2 SLP176
T01561067





000
SAUS46 KLOX 290948
MTRCQT
METAR KCQT 290947Z AUTO 00000KT 10SM CLR 16/13 A3000 RMK AO2 SLP157
T01610133





000
SAUS46 KLOX 290936
MTRMWS
METAR KMWS 290930Z 23500G00KT MM/M02 RMK SNOW DEPTH 3.00





000
SAUS46 KLOX 290915
MTRMWS
METAR KMWS 290900Z 31502G02KT 12/M03 RMK SNOW DEPTH 3.00





000
SAUS46 KLOX 290857
MTR9L2
METAR K9L2 290855Z AUTO 00000KT 10SM CLR 09/M08 A3011 RMK AO2 SLP190
T00891078 51002 TSNO $





000
SAUS46 KLOX 290855
MTRLAX
METAR KLAX 290853Z VRB03KT 10SM CLR 17/14 A3002 RMK AO2 SLP163
T01720144 58004





000
SAUS46 KLOX 290854
MTRMWS
METAR KMWS 290845Z 33002G04KT 13/M02 RMK SNOW DEPTH 3.00





000
SAUS46 KLOX 290852
MTRSMX
METAR KSMX 290851Z AUTO 14005KT 10SM CLR 13/06 A3003 RMK AO2 SLP168
T01280061 58005





000
SAUS46 KLOX 290849
MTRSDB
METAR KSDB 290848Z AUTO 00000KT 10SM CLR 17/M07 A3020 RMK AO2 SLP178
T01671067 58003





000
SAUS46 KLOX 290848
MTRCQT
METAR KCQT 290847Z AUTO 00000KT 10SM CLR 17/14 A3001 RMK AO2 SLP161
T01720139 58004





000
SAUS46 KLOX 290836
MTRMWS
METAR KMWS 290830Z 29502G03KT 12/M03 RMK SNOW DEPTH 3.00





000
SAUS46 KLOX 290815
MTRMWS
METAR KMWS 290800Z 29002G03KT 13/M02 RMK SNOW DEPTH 3.00





000
SAUS46 KLOX 290757
MTR9L2
METAR K9L2 290755Z AUTO 00000KT 10SM CLR 10/M07 A3011 RMK AO2 SLP190
T01001067 402610028 TSNO $





000
SAUS46 KLOX 290754
MTRMWS
METAR KMWS 290745Z 28001G01KT 13/M02 RMK SNOW DEPTH 3.00





000
SAUS46 KLOX 290754
MTRLAX
METAR KLAX 290753Z 00000KT 10SM CLR 18/15 A3003 RMK AO2 SLP165
T01830150 402280150





000
SAUS46 KLOX 290753
MTRSMX
METAR KSMX 290751Z AUTO 13003KT 10SM CLR 13/06 A3004 RMK AO2 SLP171
T01280061 402720094





000
SAUS46 KLOX 290749
MTRSDB
METAR KSDB 290748Z AUTO 34005KT 10SM CLR 17/M07 A3021 RMK AO2 SLP179
T01721067 402330133





000
SAUS46 KLOX 290748
MTRCQT
METAR KCQT 290747Z AUTO 00000KT 10SM CLR 17/14 A3002 RMK AO2 SLP164
T01720139 402560150





000
SAUS46 KLOX 290736
MTRMWS
METAR KMWS 290730Z 23500G00KT MM/M02 RMK SNOW DEPTH 3.00





000
SAUS46 KLOX 290715
MTRMWS
METAR KMWS 290700Z 03003G04KT 12/M02 RMK SNOW DEPTH 3.00





000
SAUS46 KLOX 290657
MTR9L2
METAR K9L2 290655Z AUTO 29003KT 10SM CLR 09/M07 A3011 RMK AO2 SLP194
T00941072 $





000
SAUS46 KLOX 290654
MTRMWS
METAR KMWS 290645Z  0502G02KT 12/M02 RMK SNOW DEPTH 3.00





000
SAUS46 KLOX 290654
MTRLAX
METAR KLAX 290653Z 00000KT 10SM CLR 18/15 A3003 RMK AO2 SLP167
T01780150





000
SAUS46 KLOX 290652
MTRSMX
METAR KSMX 290651Z AUTO 16004KT 10SM CLR 13/06 A3004 RMK AO2 SLP172
T01330061





000
SAUS46 KLOX 290649
MTRSDB
METAR KSDB 290648Z AUTO 00000KT 10SM CLR 18/M07 A3021 RMK AO2 SLP181
T01781067





000
SAUS46 KLOX 290648
MTRCQT
METAR KCQT 290647Z AUTO 00000KT 10SM CLR 18/14 A3003 RMK AO2 SLP165
T01780139





000
SAUS46 KLOX 290636
MTRMWS
METAR KMWS 290630Z 23500G00KT MM/M02 RMK SNOW DEPTH 3.00





000
SAUS46 KLOX 290615
MTRMWS
METAR KMWS 290600Z 27502G03KT 14/M02 RMK SNOW DEPTH 3.00





000
SAUS46 KLOX 290557
MTR9L2
METAR K9L2 290555Z AUTO 29004KT 10SM CLR 11/M09 A3010 RMK AO2 SLP194
T01061089 10256 20106 51011 $





000
SAUS46 KLOX 290554
MTRMWS
METAR KMWS 290545Z 23503G04KT 13/M03 RMK SNOW DEPTH 3.00





000
SAUS46 KLOX 290554
MTRLAX
METAR KLAX 290553Z 00000KT 10SM CLR 19/16 A3003 RMK AO2 SLP167
T01940161 10211 20189 53012





000
SAUS46 KLOX 290552
MTRSMX
METAR KSMX 290551Z AUTO 17004KT 8SM CLR 14/06 A3004 RMK AO2 SLP174
T01390061 10222 20133 50007





000
SAUS46 KLOX 290549
MTRCQT
METAR KCQT 290547Z AUTO 00000KT 10SM CLR 18/14 A3003 RMK AO2 SLP165
T01830144 10233 20183 53013





000
SAUS46 KLOX 290549
MTRSDB
METAR KSDB 290548Z AUTO 05003KT 10SM CLR 17/M06 A3021 RMK AO2 SLP184
T01721056 10217 20156 51011





000
SAUS46 KLOX 290536
MTRMWS
METAR KMWS 290530Z 23500G00KT MM/M02 RMK SNOW DEPTH 3.00





000
SAUS46 KLOX 290515
MTRMWS
METAR KMWS 290500Z 19504G05KT 15/M01 RMK SNOW DEPTH 3.00





000
SAUS46 KLOX 290457
MTR9L2
METAR K9L2 290455Z AUTO 00000KT 10SM CLR 13/M08 A3010 RMK AO2 SLP193
T01331083 $





000
SAUS46 KLOX 290454
MTRMWS
METAR KMWS 290445Z 22003G04KT 15/M01 RMK SNOW DEPTH 3.00





000
SAUS46 KLOX 290454
MTRMWS
METAR KMWS 290445Z 22003G04KT 15/M01 RMK SNOW DEPTH 3.00





000
SAUS46 KLOX 290454
MTRLAX
METAR KLAX 290453Z 23004KT 10SM CLR 19/16 A3002 RMK AO2 SLP164
T01940156





000
SAUS46 KLOX 290453
MTRSMX
METAR KSMX 290451Z AUTO 16004KT 10SM CLR 14/07 A3004 RMK AO2 SLP174
T01390072





000
SAUS46 KLOX 290449
MTRSDB
METAR KSDB 290448Z AUTO 08005KT 10SM CLR 17/M06 A3020 RMK AO2 SLP181
T01721056





000
SAUS46 KLOX 290448
MTRCQT
METAR KCQT 290447Z AUTO 00000KT 10SM CLR 19/14 A3001 RMK AO2 SLP162
T01890144





000
SAUS46 KLOX 290436
MTRMWS
METAR KMWS 290430Z 23500G00KT MM/M01 RMK SNOW DEPTH 3.00





000
SAUS46 KLOX 290415
MTRMWS
METAR KMWS 290400Z 18503G03KT 13/M03 RMK SNOW DEPTH 3.00





000
SAUS46 KLOX 290415
MTRMWS
METAR KMWS 290400Z 18503G03KT 13/M03 RMK SNOW DEPTH 3.00





000
SAUS46 KLOX 290359
MTR9L2
METAR K9L2 290355Z AUTO 30003KT 10SM CLR 14/M08 A3009 RMK AO2 SLP189
T01441083 $





000
SAUS46 KLOX 290354
MTRMWS
METAR KMWS 290345Z 20003G03KT 13/M01 RMK SNOW DEPTH 3.00





000
SAUS46 KLOX 290354
MTRLAX
METAR KLAX 290353Z 26006KT 10SM CLR 19/15 A3000 RMK AO2 SLP158
T01940150





000
SAUS46 KLOX 290353
MTRSMX
METAR KSMX 290351Z AUTO 10SM CLR 16/08 A3003 RMK AO2 SLP171
T01610078 $





000
SAUS46 KLOX 290349
MTRSDB
METAR KSDB 290348Z AUTO 02004KT 10SM CLR 16/M03 A3019 RMK AO2 SLP182
T01611033





000
SAUS46 KLOX 290348
MTRCQT
METAR KCQT 290347Z AUTO 00000KT 10SM CLR 19/14 A3000 RMK AO2 SLP156
T01890144





000
SAUS46 KLOX 290336
MTRMWS
METAR KMWS 290330Z 23500G00KT MM/M01 RMK SNOW DEPTH 3.00





000
SAUS46 KLOX 290315
MTRMWS
METAR KMWS 290300Z 04002G03KT 13/M04 RMK SNOW DEPTH 3.00





000
SAUS46 KLOX 290259
MTR9L2
METAR K9L2 290255Z AUTO 32003KT 10SM CLR 15/M08 A3007 RMK AO2 SLP185
T01501083 53011 TSNO $





000
SAUS46 KLOX 290254
MTRMWS
METAR KMWS 290245Z 04502G03KT 14/M03 RMK SNOW DEPTH 3.00





000
SAUS46 KLOX 290254
MTRLAX
METAR KLAX 290253Z 25006KT 10SM CLR 19/16 A3000 RMK AO2 SLP155
T01940156 53011





000
SAUS46 KLOX 290253
MTRSMX
METAR KSMX 290251Z VRB04KT 10SM CLR 17/09 A3002 RMK AO2 SLP167
T01720089 53006





000
SAUS46 KLOX 290249
MTRSDB
METAR KSDB 290248Z AUTO 07009KT 10SM CLR 17/M06 A3018 RMK AO2 SLP177
T01721056 53008





000
SAUS46 KLOX 290248
MTRCQT
METAR KCQT 290247Z AUTO 00000KT 10SM CLR 19/14 A2999 RMK AO2 SLP153
T01940144 53013





000
SAUS46 KLOX 290236
MTRMWS
METAR KMWS 290230Z 23500G00KT MM/M03 RMK SNOW DEPTH 3.00





000
SAUS46 KLOX 290215
MTRMWS
METAR KMWS 290200Z 04001G02KT 12/00 RMK SNOW DEPTH 3.00





000
SAUS46 KLOX 290157
MTR9L2
METAR K9L2 290155Z AUTO 29005KT 10SM CLR 18/M08 A3005 RMK AO2 SLP179
T01781083 TSNO $





000
SAUS46 KLOX 290155
MTRLAX
METAR KLAX 290153Z 27009KT 10SM CLR 19/16 A2998 RMK AO2 SLP151
T01940156





000
SAUS46 KLOX 290154
MTRMWS
METAR KMWS 290145Z 10001G02KT 13/02 RMK SNOW DEPTH 3.00





000
SAUS46 KLOX 290154
MTRMWS
METAR KMWS 290145Z 10001G02KT 13/02 RMK SNOW DEPTH 3.00





000
SAUS46 KLOX 290152
MTRSMX
METAR KSMX 290151Z 00000KT 10SM CLR 18/09 A3001 RMK AO2 SLP164
T01830094





000
SAUS46 KLOX 290149
MTRCQT
METAR KCQT 290147Z AUTO 27003KT 10SM CLR 21/13 A2997 RMK AO2 SLP148
T02060133





000
SAUS46 KLOX 290149
MTRCQT
METAR KCQT 290147Z AUTO 27003KT 10SM CLR 21/13 A2997 RMK AO2 SLP148
T02060133





000
SAUS46 KLOX 290149
MTRSDB
METAR KSDB 290148Z AUTO 07011KT 10SM CLR 18/M06 A3016 RMK AO2 SLP171
T01831061





000
SAUS46 KLOX 290149
MTRSDB
METAR KSDB 290148Z AUTO 07011KT 10SM CLR 18/M06 A3016 RMK AO2 SLP171
T01831061





000
SAUS46 KLOX 290136
MTRMWS
METAR KMWS 290130Z 23500G00KT MM/04 RMK SNOW DEPTH 3.00





000
SAUS46 KLOX 290136
MTRMWS
METAR KMWS 290130Z 23500G00KT MM/04 RMK SNOW DEPTH 3.00





000
SAUS46 KLOX 290115
MTRMWS
METAR KMWS 290100Z 28001G02KT 16/06 RMK SNOW DEPTH 3.00





000
SAUS46 KLOX 290057
MTR9L2
METAR K9L2 290055Z AUTO 00000KT 10SM CLR 23/M07 A3004 RMK AO2 SLP170
T02331067 $





000
SAUS46 KLOX 290054
MTRLAX
METAR KLAX 290053Z 26011KT 10SM CLR 20/15 A2997 RMK AO2 SLP148
T02000150





000
SAUS46 KLOX 290054
MTRMWS
METAR KMWS 290045Z 21001G02KT 17/06 RMK SNOW DEPTH 3.00





000
SAUS46 KLOX 290053
MTRSMX
METAR KSMX 290051Z 33005KT 10SM CLR 19/11 A3001 RMK AO2 SLP163
T01940106





000
SAUS46 KLOX 290049
MTRSDB
METAR KSDB 290048Z AUTO 07010KT 10SM CLR 19/M06 A3016 RMK AO2 SLP169
T01941056





000
SAUS46 KLOX 290048
MTRCQT
METAR KCQT 290047Z AUTO 27004KT 10SM CLR 22/13 A2996 RMK AO2 SLP142
T02170128 $





000
SAUS46 KLOX 290036
MTRMWS
METAR KMWS 290030Z 23500G00KT MM/07 RMK SNOW DEPTH 3.00





000
SAUS46 KLOX 290015
MTRMWS
METAR KMWS 290000Z 24503G06KT 19/05 RMK SNOW DEPTH 4.00





000
SAUS46 KLOX 282357
MTR9L2
METAR K9L2 282355Z AUTO 09003KT 10SM CLR 26/M07 A3004 RMK AO2 SLP166
T02561067 10261 20150 56005 $





000
SAUS46 KLOX 282355
MTRLAX
METAR KLAX 282353Z 27011KT 10SM CLR 21/14 A2996 RMK AO2 SLP144
T02110144 10228 20211 56007





000
SAUS46 KLOX 282354
MTRMWS
METAR KMWS 282345Z 22005G07KT 20/06 RMK SNOW DEPTH 4.00





000
SAUS46 KLOX 282352
MTRSMX
METAR KSMX 282351Z 31008KT 10SM CLR 22/10 A3000 RMK AO2 SLP160
T02220100 10272 20222 51002





000
SAUS46 KLOX 282349
MTRSDB
METAR KSDB 282348Z AUTO 07009KT 10SM CLR 22/M06 A3015 RMK AO2 SLP163
T02171056 10233 20200 53000





000
SAUS46 KLOX 282348
MTRCQT
METAR KCQT 282347Z AUTO 27004KT 10SM CLR 23/13 A2995 RMK AO2 SLP140
T02330133 10256 20228 56006





000
SAUS46 KLOX 282336
MTRMWS
METAR KMWS 282330Z 23500G00KT MM/05 RMK SNOW DEPTH 4.00





000
SAUS46 KLOX 282315
MTRMWS
METAR KMWS 282300Z 23005G07KT 21/05 RMK SNOW DEPTH 4.00





000
SAUS46 KLOX 282259
MTR9L2
METAR K9L2 282255Z AUTO 11006KT 10SM CLR 26/M07 A3004 RMK AO2 SLP166
T02611067 $





000
SAUS46 KLOX 282254
MTRMWS
METAR KMWS 282245Z 23006G08KT 21/06 RMK SNOW DEPTH 4.00





000
SAUS46 KLOX 282254
MTRLAX
METAR KLAX 282253Z 27012KT 10SM CLR 22/15 A2997 RMK AO2 SLP147
T02170150





000
SAUS46 KLOX 282252
MTRSMX
METAR KSMX 282251Z 32007KT 10SM CLR 24/08 A3000 RMK AO2 SLP160
T02390078





000
SAUS46 KLOX 282249
MTRSDB
METAR KSDB 282248Z AUTO 07010G16KT 10SM CLR 23/M06 A3015 RMK AO2
SLP161 T02281056





000
SAUS46 KLOX 282249
MTRCQT
METAR KCQT 282247Z AUTO VRB04KT 10SM CLR 23/14 A2995 RMK AO2 SLP142
T02330139





000
SAUS46 KLOX 282236
MTRMWS
METAR KMWS 282230Z 23500G00KT MM/06 RMK SNOW DEPTH 4.00





000
SAUS46 KLOX 282215
MTRMWS
METAR KMWS 282200Z 21504G07KT 21/06 RMK SNOW DEPTH 4.00





000
SAUS46 KLOX 282159
MTR9L2
METAR K9L2 282155Z AUTO 00000KT 10SM CLR 26/M07 A3004 RMK AO2 SLP166
T02561072 TSNO $





000
SAUS46 KLOX 282154
MTRLAX
METAR KLAX 282153Z 27011KT 10SM FEW180 22/15 A2997 RMK AO2 SLP148
T02220150





000
SAUS46 KLOX 282154
MTRMWS
METAR KMWS 282145Z 22505G07KT 22/07 RMK SNOW DEPTH 4.00





000
SAUS46 KLOX 282153
MTRSMX
METAR KSMX 282151Z 31014KT 10SM CLR 23/09 A3000 RMK AO2 SLP159
T02330094





000
SAUS46 KLOX 282149
MTRSDB
METAR KSDB 282148Z AUTO 06011KT 10SM CLR 23/M06 A3014 RMK AO2 SLP160
T02331061





000
SAUS46 KLOX 282148
MTRCQT
METAR KCQT 282147Z AUTO 00000KT 10SM CLR 25/13 A2995 RMK AO2 SLP140
T02500128





000
SAUS46 KLOX 282136
MTRMWS
METAR KMWS 282130Z 23500G00KT MM/06 RMK SNOW DEPTH 4.00





000
SAUS46 KLOX 282115
MTRMWS
METAR KMWS 282100Z 24503G06KT 22/04 RMK SNOW DEPTH 4.00





000
SAUS46 KLOX 282057
MTR9L2
METAR K9L2 282055Z AUTO VRB03KT 10SM CLR 24/M07 A3005 RMK AO2 SLP171
T02391067 58019 TSNO $





000
SAUS46 KLOX 282054
MTRMWS
METAR KMWS 282045Z 24005G07KT 23/05 RMK SNOW DEPTH 4.00





000
SAUS46 KLOX 282054
MTRLAX
METAR KLAX 282053Z 26008KT 10SM CLR 22/15 A2998 RMK AO2 SLP151
T02220150 58013





000
SAUS46 KLOX 282053
MTRSMX
METAR KSMX 282051Z 30013KT 10SM CLR 26/07 A3000 RMK AO2 SLP158
T02560067 58014





000
SAUS46 KLOX 282049
MTRSDB
METAR KSDB 282048Z AUTO 07011G18KT 10SM CLR 23/M06 A3015 RMK AO2
SLP162 T02281061 58009





000
SAUS46 KLOX 282048
MTRCQT
METAR KCQT 282047Z AUTO VRB04KT 10SM CLR 25/12 A2997 RMK AO2 SLP145
T02500122 58014





000
SAUS46 KLOX 282036
MTRMWS
METAR KMWS 282030Z 23500G00KT MM/03 RMK SNOW DEPTH 4.00





000
SAUS46 KLOX 282015
MTRMWS
METAR KMWS 282000Z 21006G09KT 22/02 RMK SNOW DEPTH 3.00





000
SAUS46 KLOX 281957
MTR9L2
METAR K9L2 281955Z AUTO 00000KT 10SM CLR 23/M06 A3008 RMK AO2 SLP179
T02281061 TSNO $





000
SAUS46 KLOX 281954
MTRLAX
METAR KLAX 281953Z 27009KT 10SM FEW018 22/13 A3000 RMK AO2 SLP158
T02220133





000
SAUS46 KLOX 281954
MTRMWS
METAR KMWS 281945Z 24504G08KT 21/02 RMK SNOW DEPTH 3.00





000
SAUS46 KLOX 281953
MTRSMX
METAR KSMX 281951Z 30010KT 10SM CLR 27/07 A3001 RMK AO2 SLP162
T02720067





000
SAUS46 KLOX 281949
MTRSDB
METAR KSDB 281948Z AUTO 07011KT 10SM CLR 22/M06 A3017 RMK AO2 SLP168
T02221061





000
SAUS46 KLOX 281948
MTRCQT
METAR KCQT 281947Z AUTO 00000KT 10SM CLR 24/13 A2998 RMK AO2 SLP150
T02440128





000
SAUS46 KLOX 281936
MTRMWS
METAR KMWS 281930Z 23500G00KT MM/04 RMK SNOW DEPTH 4.00





000
SAUS46 KLOX 281915
MTRMWS
METAR KMWS 281900Z 23505G07KT 22/03 RMK SNOW DEPTH 4.00





000
SAUS46 KLOX 281857
MTR9L2
METAR K9L2 281855Z AUTO 00000KT 10SM CLR 19/M04 A3010 RMK AO2 SLP187
T01941044 $





000
SAUS46 KLOX 281854
MTRLAX
METAR KLAX 281853Z 26007KT 10SM FEW017 22/13 A3002 RMK AO2 SLP165
T02220128





000
SAUS46 KLOX 281854
MTRMWS
METAR KMWS 281845Z 27002G04KT 21/02 RMK SNOW DEPTH 3.00





000
SAUS46 KLOX 281852
MTRSMX
METAR KSMX 281851Z VRB03KT 10SM CLR 26/03 A3003 RMK AO2 SLP170
T02560033





000
SAUS46 KLOX 281849
MTRSDB
METAR KSDB 281848Z AUTO 10013KT 10SM CLR 22/M06 A3018 RMK AO2 SLP174
T02171061





000
SAUS46 KLOX 281848
MTRCQT
METAR KCQT 281847Z AUTO 00000KT 9SM CLR 24/13 A3001 RMK AO2 SLP159
T02440128





000
SAUS46 KLOX 281836
MTRMWS
METAR KMWS 281830Z 23500G00KT MM/01 RMK SNOW DEPTH 4.00





000
SAUS46 KLOX 281815
MTRMWS
METAR KMWS 281800Z 33002G04KT 20/00 RMK SNOW DEPTH 3.00





000
SAUS46 KLOX 281759
MTR9L2
METAR K9L2 281755Z AUTO 00000KT 10SM CLR 15/M03 A3011 RMK AO2 SLP196
T01501028 10150 20028 50008 $





000
SAUS46 KLOX 281757
MTRMWS
METAR KMWS 281745Z 01002G04KT 20/01 RMK SNOW DEPTH 3.00





000
SAUS46 KLOX 281754
MTRSMX
METAR KSMX 281751Z 00000KT 10SM CLR 23/04 A3004 RMK AO2 SLP172
T02280044 10228 20094 50004





000
SAUS46 KLOX 281754
MTRLAX
METAR KLAX 281753Z 00000KT 9SM CLR 22/13 A3002 RMK AO2 SLP163
T02220133 10228 20150 50006





000
SAUS46 KLOX 281749
MTRSDB
METAR KSDB 281748Z AUTO 08010G18KT 050V110 10SM CLR 21/M05 A3018 RMK
AO2 SLP176 T02061050 10206 20133 51012





000
SAUS46 KLOX 281748
MTRCQT
METAR KCQT 281747Z AUTO 19003KT 9SM CLR 23/13 A3001 RMK AO2 SLP159
T02330128 10233 20150 50005





000
SAUS46 KLOX 281736
MTRMWS
METAR KMWS 281730Z 23500G00KT MM/01 RMK SNOW DEPTH 3.00





000
SAUS46 KLOX 281715
MTRMWS
METAR KMWS 281700Z 02002G04KT 18/00 RMK SNOW DEPTH 3.00





000
SAUS46 KLOX 281659
MTR9L2
METAR K9L2 281655Z AUTO 00000KT 10SM CLR 11/M03 A3012 RMK AO2 SLP198
T01111033 TSNO $





000
SAUS46 KLOX 281654
MTRLAX
METAR KLAX 281653Z 00000KT 9SM FEW180 21/13 A3003 RMK AO2 SLP166
T02060133





000
SAUS46 KLOX 281654
MTRLAX
METAR KLAX 281653Z 00000KT 9SM FEW180 21/13 A3003 RMK AO2 SLP166
T02060133





000
SAUS46 KLOX 281654
MTRMWS
METAR KMWS 281645Z 30500G06KT 17/00 RMK SNOW DEPTH 3.00





000
SAUS46 KLOX 281654
MTRMWS
METAR KMWS 281645Z 30500G06KT 17/00 RMK SNOW DEPTH 3.00





000
SAUS46 KLOX 281652
MTRSMX
METAR KSMX 281651Z 00000KT 10SM CLR 20/06 A3004 RMK AO2 SLP174
T02000056





000
SAUS46 KLOX 281652
MTRSMX
METAR KSMX 281651Z 00000KT 10SM CLR 20/06 A3004 RMK AO2 SLP174
T02000056





000
SAUS46 KLOX 281650
MTRSDB
METAR KSDB 281648Z AUTO 09012KT 10SM CLR 19/M05 A3017 RMK AO2 SLP175
T01891050





000
SAUS46 KLOX 281648
MTRCQT
METAR KCQT 281647Z AUTO 00000KT 9SM CLR 21/13 A3002 RMK AO2 SLP163
T02110128





    US Dept of Commerce
    National Oceanic and Atmospheric Administration
    National Weather Service
    1325 East West Highway
    Silver Spring, MD 20910
    Page Author: NWS Internet Services Team
Disclaimer
Information Quality
Credits
Glossary
Privacy Policy
Freedom of Information Act (FOIA)
About Us
Career Opportunities